PWSweather.com
Personal Weather Stations
Station Observations
GLHZ79
SantesFR

SantesFR

Lat: 50.593122, Lon: 2.9570139999999583

Elevation: 72

Station Type: Oregon WMR200

Latest ConditionsUpdated 2:59:00 PM GMT+01:01 Thursday, Sep 21, 2017
Currently Today's Max Today's Min Today's Average
Temperature -5537.2°C 0.0°F-17.8°C 0.0°F-17.8°C 0.0°F-17.8°C
Dew Point -5537.2°C 0.0°F-17.8°C 0.0°F-17.8°C 0.0°F-17.8°C
Winds 1.5 mph WSW2.4 kmh WSW 3.6 mph SW5.8 kmh SW - 0.2 mph 0.3 kmh
Wind Gusts 2.7 mph4.3 kmh 7.8 mph12.6 kmh - -
Humidity - 0% 0% 0%
Pressure -338605.1 mb 0.00 in0.0 mb 0.00 in0.0 mb -
Hour Temp Dew Point Humidity Winds Wind Gusts Pressure Precip Precip Rate Daily Precip Total
02:59 PM -5537.2°C -5537.2°C - 1.5 mph WSW2.4 kmh WSW 2.7 mph4.3 kmh -338605.1 mb 0.00 in0.0 mm 0.00 in0.0 mm 0.00 in0.0 mm
02:58 PM -5537.2°C -5537.2°C - 1.6 mph SSW2.6 kmh SSW 2.2 mph3.5 kmh -338605.1 mb 0.00 in0.0 mm 0.00 in0.0 mm 0.00 in0.0 mm
02:57 PM -5537.2°C -5537.2°C - 1.6 mph NW2.6 kmh NW 3.6 mph5.8 kmh -338605.1 mb 0.00 in0.0 mm 0.00 in0.0 mm 0.00 in0.0 mm
02:56 PM -5537.2°C -5537.2°C - 2.6 mph SW4.2 kmh SW 4.5 mph7.2 kmh -338605.1 mb 0.00 in0.0 mm 0.00 in0.0 mm 0.00 in0.0 mm
02:55 PM -5537.2°C -5537.2°C - 1.7 mph S2.7 kmh S 4.3 mph6.9 kmh -338605.1 mb 0.00 in0.0 mm 0.00 in0.0 mm 0.00 in0.0 mm
02:54 PM -5537.2°C -5537.2°C - 1.1 mph WSW1.8 kmh WSW 1.1 mph1.8 kmh -338605.1 mb 0.00 in0.0 mm 0.00 in0.0 mm 0.00 in0.0 mm
02:53 PM -5537.2°C -5537.2°C - 1.5 mph NNE2.4 kmh NNE 1.6 mph2.6 kmh -338605.1 mb 0.00 in0.0 mm 0.00 in0.0 mm 0.00 in0.0 mm
02:52 PM -5537.2°C -5537.2°C - 1.4 mph WSW2.3 kmh WSW 3.1 mph5.0 kmh -338605.1 mb 0.00 in0.0 mm 0.00 in0.0 mm 0.00 in0.0 mm
02:51 PM -5537.2°C -5537.2°C - 1.2 mph SW1.9 kmh SW 2.0 mph3.2 kmh -338605.1 mb 0.00 in0.0 mm 0.00 in0.0 mm 0.00 in0.0 mm
02:50 PM -5537.2°C -5537.2°C - 1.5 mph NNE2.4 kmh NNE 2.5 mph4.0 kmh -338605.1 mb 0.00 in0.0 mm 0.00 in0.0 mm 0.00 in0.0 mm
02:49 PM -5537.2°C -5537.2°C - 0.4 mph 0.6 kmh 2.7 mph4.3 kmh -338605.1 mb 0.00 in0.0 mm 0.00 in0.0 mm 0.00 in0.0 mm
02:48 PM -5537.2°C -5537.2°C - 0.6 mph E1.0 kmh E 1.1 mph1.8 kmh -338605.1 mb 0.00 in0.0 mm 0.00 in0.0 mm 0.00 in0.0 mm
02:47 PM -5537.2°C -5537.2°C - 1.3 mph SE2.1 kmh SE 2.9 mph4.7 kmh -338605.1 mb 0.00 in0.0 mm 0.00 in0.0 mm 0.00 in0.0 mm
02:46 PM -5537.2°C -5537.2°C - 1.1 mph NE1.8 kmh NE 2.0 mph3.2 kmh -338605.1 mb 0.00 in0.0 mm 0.00 in0.0 mm 0.00 in0.0 mm
02:45 PM -5537.2°C -5537.2°C - 0.2 mph WSW0.3 kmh WSW 1.6 mph2.6 kmh -338605.1 mb 0.00 in0.0 mm 0.00 in0.0 mm 0.00 in0.0 mm
02:44 PM -5537.2°C -5537.2°C - 0.6 mph SW1.0 kmh SW 0.9 mph1.4 kmh -338605.1 mb 0.00 in0.0 mm 0.00 in0.0 mm 0.00 in0.0 mm
02:43 PM -5537.2°C -5537.2°C - 0.2 mph WSW0.3 kmh WSW 3.1 mph5.0 kmh -338605.1 mb 0.00 in0.0 mm 0.00 in0.0 mm 0.00 in0.0 mm
02:42 PM -5537.2°C -5537.2°C - Calm Calm -- -338605.1 mb 0.00 in0.0 mm 0.00 in0.0 mm 0.00 in0.0 mm
02:41 PM -5537.2°C -5537.2°C - Calm Calm -- -338605.1 mb 0.00 in0.0 mm 0.00 in0.0 mm 0.00 in0.0 mm
02:40 PM -5537.2°C -5537.2°C - 1.0 mph SSW1.6 kmh SSW 1.3 mph2.1 kmh -338605.1 mb 0.00 in0.0 mm 0.00 in0.0 mm 0.00 in0.0 mm
02:39 PM -5537.2°C -5537.2°C - 1.2 mph SW1.9 kmh SW 3.6 mph5.8 kmh -338605.1 mb 0.00 in0.0 mm 0.00 in0.0 mm 0.00 in0.0 mm
02:38 PM -5537.2°C -5537.2°C - 0.2 mph SSW0.3 kmh SSW 2.7 mph4.3 kmh -338605.1 mb 0.00 in0.0 mm 0.00 in0.0 mm 0.00 in0.0 mm
02:37 PM -5537.2°C -5537.2°C - Calm Calm 2.0 mph3.2 kmh -338605.1 mb 0.00 in0.0 mm 0.00 in0.0 mm 0.00 in0.0 mm
02:36 PM -5537.2°C -5537.2°C - 0.7 mph SW1.1 kmh SW 1.3 mph2.1 kmh -338605.1 mb 0.00 in0.0 mm 0.00 in0.0 mm 0.00 in0.0 mm
02:35 PM -5537.2°C -5537.2°C - 0.2 mph WSW0.3 kmh WSW 2.5 mph4.0 kmh -338605.1 mb 0.00 in0.0 mm 0.00 in0.0 mm 0.00 in0.0 mm
02:34 PM -5537.2°C -5537.2°C - 1.0 mph S1.6 kmh S 1.3 mph2.1 kmh -338605.1 mb 0.00 in0.0 mm 0.00 in0.0 mm 0.00 in0.0 mm
02:33 PM -5537.2°C -5537.2°C - 1.1 mph SW1.8 kmh SW 1.6 mph2.6 kmh -338605.1 mb 0.00 in0.0 mm 0.00 in0.0 mm 0.00 in0.0 mm
02:32 PM -5537.2°C -5537.2°C - 0.3 mph SSW0.5 kmh SSW 2.7 mph4.3 kmh -338605.1 mb 0.00 in0.0 mm 0.00 in0.0 mm 0.00 in0.0 mm
02:31 PM -5537.2°C -5537.2°C - Calm Calm -- -338605.1 mb 0.00 in0.0 mm 0.00 in0.0 mm 0.00 in0.0 mm
02:30 PM -5537.2°C -5537.2°C - 0.8 mph S1.3 kmh S 1.1 mph1.8 kmh -338605.1 mb 0.00 in0.0 mm 0.00 in0.0 mm 0.00 in0.0 mm
02:29 PM -5537.2°C -5537.2°C - 1.3 mph SSW2.1 kmh SSW 2.2 mph3.5 kmh -338605.1 mb 0.00 in0.0 mm 0.00 in0.0 mm 0.00 in0.0 mm
02:28 PM -5537.2°C -5537.2°C - 1.5 mph SW2.4 kmh SW 2.5 mph4.0 kmh -338605.1 mb 0.00 in0.0 mm 0.00 in0.0 mm 0.00 in0.0 mm
02:27 PM -5537.2°C -5537.2°C - 1.8 mph WSW2.9 kmh WSW 2.7 mph4.3 kmh -338605.1 mb 0.00 in0.0 mm 0.00 in0.0 mm 0.00 in0.0 mm
02:26 PM -5537.2°C -5537.2°C - 1.7 mph N2.7 kmh N 3.1 mph5.0 kmh -338605.1 mb 0.00 in0.0 mm 0.00 in0.0 mm 0.00 in0.0 mm
02:25 PM -5537.2°C -5537.2°C - 1.2 mph SW1.9 kmh SW 2.5 mph4.0 kmh -338605.1 mb 0.00 in0.0 mm 0.00 in0.0 mm 0.00 in0.0 mm
02:24 PM -5537.2°C -5537.2°C - 1.5 mph W2.4 kmh W 3.1 mph5.0 kmh -338605.1 mb 0.00 in0.0 mm 0.00 in0.0 mm 0.00 in0.0 mm
02:23 PM -5537.2°C -5537.2°C - 1.2 mph WSW1.9 kmh WSW 3.6 mph5.8 kmh -338605.1 mb 0.00 in0.0 mm 0.00 in0.0 mm 0.00 in0.0 mm
02:22 PM -5537.2°C -5537.2°C - 1.1 mph SSW1.8 kmh SSW 2.5 mph4.0 kmh -338605.1 mb 0.00 in0.0 mm 0.00 in0.0 mm 0.00 in0.0 mm
02:21 PM -5537.2°C -5537.2°C - 1.3 mph WSW2.1 kmh WSW 1.3 mph2.1 kmh -338605.1 mb 0.00 in0.0 mm 0.00 in0.0 mm 0.00 in0.0 mm
02:20 PM -5537.2°C -5537.2°C - 1.3 mph SW2.1 kmh SW 2.5 mph4.0 kmh -338605.1 mb 0.00 in0.0 mm 0.00 in0.0 mm 0.00 in0.0 mm
02:19 PM -5537.2°C -5537.2°C - 1.0 mph W1.6 kmh W 3.6 mph5.8 kmh -338605.1 mb 0.00 in0.0 mm 0.00 in0.0 mm 0.00 in0.0 mm
02:18 PM -5537.2°C -5537.2°C - 0.9 mph NW1.4 kmh NW 1.6 mph2.6 kmh -338605.1 mb 0.00 in0.0 mm 0.00 in0.0 mm 0.00 in0.0 mm
02:17 PM -5537.2°C -5537.2°C - 0.2 mph WSW0.3 kmh WSW 1.1 mph1.8 kmh -338605.1 mb 0.00 in0.0 mm 0.00 in0.0 mm 0.00 in0.0 mm
02:16 PM -5537.2°C -5537.2°C - 0.7 mph E1.1 kmh E 0.9 mph1.4 kmh -338605.1 mb 0.00 in0.0 mm 0.00 in0.0 mm 0.00 in0.0 mm
02:15 PM -5537.2°C -5537.2°C - 0.9 mph SW1.4 kmh SW 1.6 mph2.6 kmh -338605.1 mb 0.00 in0.0 mm 0.00 in0.0 mm 0.00 in0.0 mm
02:14 PM -5537.2°C -5537.2°C - 1.1 mph W1.8 kmh W 1.1 mph1.8 kmh -338605.1 mb 0.00 in0.0 mm 0.00 in0.0 mm 0.00 in0.0 mm
02:13 PM -5537.2°C -5537.2°C - 2.1 mph W3.4 kmh W 3.8 mph6.1 kmh -338605.1 mb 0.00 in0.0 mm 0.00 in0.0 mm 0.00 in0.0 mm
02:12 PM -5537.2°C -5537.2°C - 2.3 mph N3.7 kmh N 3.6 mph5.8 kmh -338605.1 mb 0.00 in0.0 mm 0.00 in0.0 mm 0.00 in0.0 mm
02:11 PM -5537.2°C -5537.2°C - 1.2 mph N1.9 kmh N 3.8 mph6.1 kmh -338605.1 mb 0.00 in0.0 mm 0.00 in0.0 mm 0.00 in0.0 mm
02:10 PM -5537.2°C -5537.2°C - 0.9 mph SSW1.4 kmh SSW 2.0 mph3.2 kmh -338605.1 mb 0.00 in0.0 mm 0.00 in0.0 mm 0.00 in0.0 mm
02:09 PM -5537.2°C -5537.2°C - 1.2 mph SSW1.9 kmh SSW 1.3 mph2.1 kmh -338605.1 mb 0.00 in0.0 mm 0.00 in0.0 mm 0.00 in0.0 mm
02:08 PM -5537.2°C -5537.2°C - 2.7 mph SW4.3 kmh SW 3.4 mph5.5 kmh -338605.1 mb 0.00 in0.0 mm 0.00 in0.0 mm 0.00 in0.0 mm
02:07 PM -5537.2°C -5537.2°C - 1.6 mph SW2.6 kmh SW 3.1 mph5.0 kmh -338605.1 mb 0.00 in0.0 mm 0.00 in0.0 mm 0.00 in0.0 mm
02:06 PM -5537.2°C -5537.2°C - 0.3 mph SSW0.5 kmh SSW 3.6 mph5.8 kmh -338605.1 mb 0.00 in0.0 mm 0.00 in0.0 mm 0.00 in0.0 mm
02:05 PM -5537.2°C -5537.2°C - Calm Calm 0.9 mph1.4 kmh -338605.1 mb 0.00 in0.0 mm 0.00 in0.0 mm 0.00 in0.0 mm
02:04 PM -5537.2°C -5537.2°C - Calm Calm -- -338605.1 mb 0.00 in0.0 mm 0.00 in0.0 mm 0.00 in0.0 mm
02:03 PM -5537.2°C -5537.2°C - 1.1 mph SSW1.8 kmh SSW 1.3 mph2.1 kmh -338605.1 mb 0.00 in0.0 mm 0.00 in0.0 mm 0.00 in0.0 mm
02:02 PM -5537.2°C -5537.2°C - 1.3 mph SW2.1 kmh SW 3.6 mph5.8 kmh -338605.1 mb 0.00 in0.0 mm 0.00 in0.0 mm 0.00 in0.0 mm
02:01 PM -5537.2°C -5537.2°C - 1.0 mph SW1.6 kmh SW 3.6 mph5.8 kmh -338605.1 mb 0.00 in0.0 mm 0.00 in0.0 mm 0.00 in0.0 mm
02:00 PM -5537.2°C -5537.2°C - 1.3 mph NNW2.1 kmh NNW 1.3 mph2.1 kmh -338605.1 mb 0.00 in0.0 mm 0.00 in0.0 mm 0.00 in0.0 mm
01:59 PM -5537.2°C -5537.2°C - 1.3 mph NNE2.1 kmh NNE 3.1 mph5.0 kmh -338605.1 mb 0.00 in0.0 mm 0.00 in0.0 mm 0.00 in0.0 mm
01:58 PM -5537.2°C -5537.2°C - 1.2 mph WSW1.9 kmh WSW 2.9 mph4.7 kmh -338605.1 mb 0.00 in0.0 mm 0.00 in0.0 mm 0.00 in0.0 mm
01:57 PM -5537.2°C -5537.2°C - 0.4 mph WSW0.6 kmh WSW 2.7 mph4.3 kmh -338605.1 mb 0.00 in0.0 mm 0.00 in0.0 mm 0.00 in0.0 mm
01:56 PM -5537.2°C -5537.2°C - Calm Calm 0.9 mph1.4 kmh -338605.1 mb 0.00 in0.0 mm 0.00 in0.0 mm 0.00 in0.0 mm
01:55 PM -5537.2°C -5537.2°C - Calm Calm -- -338605.1 mb 0.00 in0.0 mm 0.00 in0.0 mm 0.00 in0.0 mm
01:54 PM -5537.2°C -5537.2°C - Calm Calm 0.9 mph1.4 kmh -338605.1 mb 0.00 in0.0 mm 0.00 in0.0 mm 0.00 in0.0 mm
01:53 PM -5537.2°C -5537.2°C - 1.3 mph SSW2.1 kmh SSW 2.0 mph3.2 kmh -338605.1 mb 0.00 in0.0 mm 0.00 in0.0 mm 0.00 in0.0 mm
01:52 PM -5537.2°C -5537.2°C - 1.6 mph SW2.6 kmh SW 2.0 mph3.2 kmh -338605.1 mb 0.00 in0.0 mm 0.00 in0.0 mm 0.00 in0.0 mm
01:51 PM -5537.2°C -5537.2°C - 1.2 mph SW1.9 kmh SW 2.7 mph4.3 kmh -338605.1 mb 0.00 in0.0 mm 0.00 in0.0 mm 0.00 in0.0 mm
01:50 PM -5537.2°C -5537.2°C - 1.5 mph SSW2.4 kmh SSW 3.1 mph5.0 kmh -338605.1 mb 0.00 in0.0 mm 0.00 in0.0 mm 0.00 in0.0 mm
01:49 PM -5537.2°C -5537.2°C - 1.9 mph SW3.1 kmh SW 2.7 mph4.3 kmh -338605.1 mb 0.00 in0.0 mm 0.00 in0.0 mm 0.00 in0.0 mm
01:48 PM -5537.2°C -5537.2°C - 1.8 mph SW2.9 kmh SW 2.9 mph4.7 kmh -338605.1 mb 0.00 in0.0 mm 0.00 in0.0 mm 0.00 in0.0 mm
01:47 PM -5537.2°C -5537.2°C - 1.1 mph SSW1.8 kmh SSW 2.9 mph4.7 kmh -338605.1 mb 0.00 in0.0 mm 0.00 in0.0 mm 0.00 in0.0 mm
01:46 PM -5537.2°C -5537.2°C - 0.2 mph SW0.3 kmh SW 2.2 mph3.5 kmh -338605.1 mb 0.00 in0.0 mm 0.00 in0.0 mm 0.00 in0.0 mm
01:45 PM -5537.2°C -5537.2°C - Calm Calm 1.6 mph2.6 kmh -338605.1 mb 0.00 in0.0 mm 0.00 in0.0 mm 0.00 in0.0 mm
01:44 PM -5537.2°C -5537.2°C - 0.8 mph NW1.3 kmh NW 1.1 mph1.8 kmh -338605.1 mb 0.00 in0.0 mm 0.00 in0.0 mm 0.00 in0.0 mm
01:43 PM -5537.2°C -5537.2°C - 1.5 mph S2.4 kmh S 2.9 mph4.7 kmh -338605.1 mb 0.00 in0.0 mm 0.00 in0.0 mm 0.00 in0.0 mm
01:42 PM -5537.2°C -5537.2°C - 1.6 mph SW2.6 kmh SW 3.4 mph5.5 kmh -338605.1 mb 0.00 in0.0 mm 0.00 in0.0 mm 0.00 in0.0 mm
01:41 PM -5537.2°C -5537.2°C - 0.4 mph WSW0.6 kmh WSW 2.7 mph4.3 kmh -338605.1 mb 0.00 in0.0 mm 0.00 in0.0 mm 0.00 in0.0 mm
01:40 PM -5537.2°C -5537.2°C - Calm Calm -- -338605.1 mb 0.00 in0.0 mm 0.00 in0.0 mm 0.00 in0.0 mm
01:39 PM -5537.2°C -5537.2°C - Calm Calm 1.6 mph2.6 kmh -338605.1 mb 0.00 in0.0 mm 0.00 in0.0 mm 0.00 in0.0 mm
01:38 PM -5537.2°C -5537.2°C - 0.6 mph SSW1.0 kmh SSW 1.1 mph1.8 kmh -338605.1 mb 0.00 in0.0 mm 0.00 in0.0 mm 0.00 in0.0 mm
01:37 PM -5537.2°C -5537.2°C - 0.2 mph WSW0.3 kmh WSW 2.5 mph4.0 kmh -338605.1 mb 0.00 in0.0 mm 0.00 in0.0 mm 0.00 in0.0 mm
01:36 PM -5537.2°C -5537.2°C - 1.3 mph SW2.1 kmh SW 2.0 mph3.2 kmh -338605.1 mb 0.00 in0.0 mm 0.00 in0.0 mm 0.00 in0.0 mm
01:35 PM -5537.2°C -5537.2°C - 1.3 mph SW2.1 kmh SW 3.8 mph6.1 kmh -338605.1 mb 0.00 in0.0 mm 0.00 in0.0 mm 0.00 in0.0 mm
01:34 PM -5537.2°C -5537.2°C - Calm Calm 2.2 mph3.5 kmh -338605.1 mb 0.00 in0.0 mm 0.00 in0.0 mm 0.00 in0.0 mm
01:33 PM -5537.2°C -5537.2°C - 0.7 mph SSE1.1 kmh SSE 0.9 mph1.4 kmh -338605.1 mb 0.00 in0.0 mm 0.00 in0.0 mm 0.00 in0.0 mm
01:32 PM -5537.2°C -5537.2°C - 1.4 mph SSW2.3 kmh SSW 2.7 mph4.3 kmh -338605.1 mb 0.00 in0.0 mm 0.00 in0.0 mm 0.00 in0.0 mm
01:31 PM -5537.2°C -5537.2°C - 1.3 mph SSW2.1 kmh SSW 3.4 mph5.5 kmh -338605.1 mb 0.00 in0.0 mm 0.00 in0.0 mm 0.00 in0.0 mm
01:30 PM -5537.2°C -5537.2°C - 1.0 mph S1.6 kmh S 4.0 mph6.4 kmh -338605.1 mb 0.00 in0.0 mm 0.00 in0.0 mm 0.00 in0.0 mm
01:29 PM -5537.2°C -5537.2°C - 0.9 mph SW1.4 kmh SW 3.4 mph5.5 kmh -338605.1 mb 0.00 in0.0 mm 0.00 in0.0 mm 0.00 in0.0 mm
01:28 PM -5537.2°C -5537.2°C - 1.8 mph SW2.9 kmh SW 2.0 mph3.2 kmh -338605.1 mb 0.00 in0.0 mm 0.00 in0.0 mm 0.00 in0.0 mm
01:27 PM -5537.2°C -5537.2°C - 3.6 mph SW5.8 kmh SW 3.6 mph5.8 kmh -338605.1 mb 0.00 in0.0 mm 0.00 in0.0 mm 0.00 in0.0 mm
01:26 PM -5537.2°C -5537.2°C - 1.9 mph WSW3.1 kmh WSW 7.8 mph12.6 kmh -338605.1 mb 0.00 in0.0 mm 0.00 in0.0 mm 0.00 in0.0 mm
01:25 PM -5537.2°C -5537.2°C - 1.1 mph SW1.8 kmh SW 4.3 mph6.9 kmh -338605.1 mb 0.00 in0.0 mm 0.00 in0.0 mm 0.00 in0.0 mm
01:24 PM -5537.2°C -5537.2°C - 1.0 mph S1.6 kmh S 1.6 mph2.6 kmh -338605.1 mb 0.00 in0.0 mm 0.00 in0.0 mm 0.00 in0.0 mm
01:23 PM -5537.2°C -5537.2°C - 0.9 mph SSE1.4 kmh SSE 2.7 mph4.3 kmh -338605.1 mb 0.00 in0.0 mm 0.00 in0.0 mm 0.00 in0.0 mm
01:22 PM -5537.2°C -5537.2°C - 1.9 mph W3.1 kmh W 2.2 mph3.5 kmh -338605.1 mb 0.00 in0.0 mm 0.00 in0.0 mm 0.00 in0.0 mm
01:21 PM -5537.2°C -5537.2°C - 1.6 mph WSW2.6 kmh WSW 3.8 mph6.1 kmh -338605.1 mb 0.00 in0.0 mm 0.00 in0.0 mm 0.00 in0.0 mm
01:20 PM -5537.2°C -5537.2°C - 1.2 mph SW1.9 kmh SW 2.5 mph4.0 kmh -338605.1 mb 0.00 in0.0 mm 0.00 in0.0 mm 0.00 in0.0 mm
01:19 PM -5537.2°C -5537.2°C - 1.1 mph SW1.8 kmh SW 3.1 mph5.0 kmh -338605.1 mb 0.00 in0.0 mm 0.00 in0.0 mm 0.00 in0.0 mm
01:18 PM -5537.2°C -5537.2°C - 1.3 mph SW2.1 kmh SW 3.4 mph5.5 kmh -338605.1 mb 0.00 in0.0 mm 0.00 in0.0 mm 0.00 in0.0 mm
01:17 PM -5537.2°C -5537.2°C - 1.2 mph SW1.9 kmh SW 2.9 mph4.7 kmh -338605.1 mb 0.00 in0.0 mm 0.00 in0.0 mm 0.00 in0.0 mm
01:16 PM -5537.2°C -5537.2°C - 2.6 mph SW4.2 kmh SW 3.1 mph5.0 kmh -338605.1 mb 0.00 in0.0 mm 0.00 in0.0 mm 0.00 in0.0 mm
01:15 PM -5537.2°C -5537.2°C - 1.8 mph SSW2.9 kmh SSW 3.6 mph5.8 kmh -338605.1 mb 0.00 in0.0 mm 0.00 in0.0 mm 0.00 in0.0 mm
01:14 PM -5537.2°C -5537.2°C - 2.0 mph SW3.2 kmh SW 2.2 mph3.5 kmh -338605.1 mb 0.00 in0.0 mm 0.00 in0.0 mm 0.00 in0.0 mm
01:13 PM -5537.2°C -5537.2°C - 1.1 mph SSW1.8 kmh SSW 3.1 mph5.0 kmh -338605.1 mb 0.00 in0.0 mm 0.00 in0.0 mm 0.00 in0.0 mm
01:12 PM -5537.2°C -5537.2°C - 1.1 mph SW1.8 kmh SW 2.9 mph4.7 kmh -338605.1 mb 0.00 in0.0 mm 0.00 in0.0 mm 0.00 in0.0 mm
01:11 PM -5537.2°C -5537.2°C - 1.3 mph SW2.1 kmh SW 2.9 mph4.7 kmh -338605.1 mb 0.00 in0.0 mm 0.00 in0.0 mm 0.00 in0.0 mm
01:10 PM -5537.2°C -5537.2°C - 1.5 mph SW2.4 kmh SW 2.5 mph4.0 kmh -338605.1 mb 0.00 in0.0 mm 0.00 in0.0 mm 0.00 in0.0 mm
01:09 PM -5537.2°C -5537.2°C - 1.4 mph SW2.3 kmh SW 2.7 mph4.3 kmh -338605.1 mb 0.00 in0.0 mm 0.00 in0.0 mm 0.00 in0.0 mm
01:08 PM -5537.2°C -5537.2°C - 2.1 mph SW3.4 kmh SW 2.5 mph4.0 kmh -338605.1 mb 0.00 in0.0 mm 0.00 in0.0 mm 0.00 in0.0 mm
01:07 PM -5537.2°C -5537.2°C - 1.7 mph WSW2.7 kmh WSW 3.1 mph5.0 kmh -338605.1 mb 0.00 in0.0 mm 0.00 in0.0 mm 0.00 in0.0 mm
01:06 PM -5537.2°C -5537.2°C - 0.4 mph SSE0.6 kmh SSE 3.1 mph5.0 kmh -338605.1 mb 0.00 in0.0 mm 0.00 in0.0 mm 0.00 in0.0 mm
01:05 PM -5537.2°C -5537.2°C - 0.7 mph SSW1.1 kmh SSW 2.2 mph3.5 kmh -338605.1 mb 0.00 in0.0 mm 0.00 in0.0 mm 0.00 in0.0 mm
01:04 PM -5537.2°C -5537.2°C - 1.2 mph SW1.9 kmh SW 2.5 mph4.0 kmh -338605.1 mb 0.00 in0.0 mm 0.00 in0.0 mm 0.00 in0.0 mm
01:03 PM -5537.2°C -5537.2°C - 0.5 mph SSW0.8 kmh SSW 4.0 mph6.4 kmh -338605.1 mb 0.00 in0.0 mm 0.00 in0.0 mm 0.00 in0.0 mm
01:02 PM -5537.2°C -5537.2°C - 1.5 mph SSW2.4 kmh SSW 2.0 mph3.2 kmh -338605.1 mb 0.00 in0.0 mm 0.00 in0.0 mm 0.00 in0.0 mm
01:01 PM -5537.2°C -5537.2°C - 2.2 mph SW3.5 kmh SW 2.2 mph3.5 kmh -338605.1 mb 0.00 in0.0 mm 0.00 in0.0 mm 0.00 in0.0 mm
01:00 PM -5537.2°C -5537.2°C - 1.7 mph SW2.7 kmh SW 3.4 mph5.5 kmh -338605.1 mb 0.00 in0.0 mm 0.00 in0.0 mm 0.00 in0.0 mm
12:59 PM -5537.2°C -5537.2°C - 2.2 mph S3.5 kmh S 3.6 mph5.8 kmh -338605.1 mb 0.00 in0.0 mm 0.00 in0.0 mm 0.00 in0.0 mm
12:58 PM -5537.2°C -5537.2°C - 1.9 mph SW3.1 kmh SW 3.8 mph6.1 kmh -338605.1 mb 0.00 in0.0 mm 0.00 in0.0 mm 0.00 in0.0 mm
12:57 PM -5537.2°C -5537.2°C - 2.0 mph SW3.2 kmh SW 3.1 mph5.0 kmh -338605.1 mb 0.00 in0.0 mm 0.00 in0.0 mm 0.00 in0.0 mm
12:56 PM -5537.2°C -5537.2°C - 1.7 mph WSW2.7 kmh WSW 3.4 mph5.5 kmh -338605.1 mb 0.00 in0.0 mm 0.00 in0.0 mm 0.00 in0.0 mm
12:55 PM -5537.2°C -5537.2°C - 2.5 mph SW4.0 kmh SW 3.1 mph5.0 kmh -338605.1 mb 0.00 in0.0 mm 0.00 in0.0 mm 0.00 in0.0 mm
12:54 PM -5537.2°C -5537.2°C - 1.8 mph SW2.9 kmh SW 3.8 mph6.1 kmh -338605.1 mb 0.00 in0.0 mm 0.00 in0.0 mm 0.00 in0.0 mm
12:53 PM -5537.2°C -5537.2°C - 2.9 mph SW4.7 kmh SW 3.4 mph5.5 kmh -338605.1 mb 0.00 in0.0 mm 0.00 in0.0 mm 0.00 in0.0 mm
12:52 PM -5537.2°C -5537.2°C - 2.0 mph SW3.2 kmh SW 4.0 mph6.4 kmh -338605.1 mb 0.00 in0.0 mm 0.00 in0.0 mm 0.00 in0.0 mm
12:51 PM -5537.2°C -5537.2°C - 2.3 mph SW3.7 kmh SW 2.9 mph4.7 kmh -338605.1 mb 0.00 in0.0 mm 0.00 in0.0 mm 0.00 in0.0 mm
12:50 PM -5537.2°C -5537.2°C - 2.5 mph SW4.0 kmh SW 3.6 mph5.8 kmh -338605.1 mb 0.00 in0.0 mm 0.00 in0.0 mm 0.00 in0.0 mm
12:49 PM -5537.2°C -5537.2°C - 1.9 mph S3.1 kmh S 4.7 mph7.6 kmh -338605.1 mb 0.00 in0.0 mm 0.00 in0.0 mm 0.00 in0.0 mm
12:48 PM -5537.2°C -5537.2°C - 0.4 mph SE0.6 kmh SE 3.1 mph5.0 kmh -338605.1 mb 0.00 in0.0 mm 0.00 in0.0 mm 0.00 in0.0 mm
12:47 PM -5537.2°C -5537.2°C - 0.7 mph SSE1.1 kmh SSE 1.1 mph1.8 kmh -338605.1 mb 0.00 in0.0 mm 0.00 in0.0 mm 0.00 in0.0 mm
12:46 PM -5537.2°C -5537.2°C - 0.2 mph SW0.3 kmh SW 2.0 mph3.2 kmh -338605.1 mb 0.00 in0.0 mm 0.00 in0.0 mm 0.00 in0.0 mm
12:45 PM -5537.2°C -5537.2°C - 2.5 mph WSW4.0 kmh WSW 3.4 mph5.5 kmh -338605.1 mb 0.00 in0.0 mm 0.00 in0.0 mm 0.00 in0.0 mm
12:44 PM -5537.2°C -5537.2°C - 1.8 mph SW2.9 kmh SW 5.6 mph9.0 kmh -338605.1 mb 0.00 in0.0 mm 0.00 in0.0 mm 0.00 in0.0 mm
12:43 PM -5537.2°C -5537.2°C - 1.2 mph SSW1.9 kmh SSW 2.0 mph3.2 kmh -338605.1 mb 0.00 in0.0 mm 0.00 in0.0 mm 0.00 in0.0 mm
12:42 PM -5537.2°C -5537.2°C - 0.4 mph S0.6 kmh S 2.2 mph3.5 kmh -338605.1 mb 0.00 in0.0 mm 0.00 in0.0 mm 0.00 in0.0 mm
12:41 PM -5537.2°C -5537.2°C - 2.2 mph SSW3.5 kmh SSW 2.9 mph4.7 kmh -338605.1 mb 0.00 in0.0 mm 0.00 in0.0 mm 0.00 in0.0 mm
12:40 PM -5537.2°C -5537.2°C - 2.5 mph SW4.0 kmh SW 3.8 mph6.1 kmh -338605.1 mb 0.00 in0.0 mm 0.00 in0.0 mm 0.00 in0.0 mm
12:39 PM -5537.2°C -5537.2°C - 1.4 mph SW2.3 kmh SW 2.2 mph3.5 kmh -338605.1 mb 0.00 in0.0 mm 0.00 in0.0 mm 0.00 in0.0 mm
12:38 PM -5537.2°C -5537.2°C - 2.0 mph SSW3.2 kmh SSW 2.2 mph3.5 kmh -338605.1 mb 0.00 in0.0 mm 0.00 in0.0 mm 0.00 in0.0 mm
12:37 PM -5537.2°C -5537.2°C - 2.9 mph SW4.7 kmh SW 3.6 mph5.8 kmh -338605.1 mb 0.00 in0.0 mm 0.00 in0.0 mm 0.00 in0.0 mm
12:36 PM -5537.2°C -5537.2°C - 0.8 mph NNW1.3 kmh NNW 5.6 mph9.0 kmh -338605.1 mb 0.00 in0.0 mm 0.00 in0.0 mm 0.00 in0.0 mm
12:35 PM -5537.2°C -5537.2°C - Calm Calm 3.1 mph5.0 kmh -338605.1 mb 0.00 in0.0 mm 0.00 in0.0 mm 0.00 in0.0 mm
12:34 PM -5537.2°C -5537.2°C - Calm Calm 1.1 mph1.8 kmh -338605.1 mb 0.00 in0.0 mm 0.00 in0.0 mm 0.00 in0.0 mm
12:33 PM -5537.2°C -5537.2°C - Calm Calm -- -338605.1 mb 0.00 in0.0 mm 0.00 in0.0 mm 0.00 in0.0 mm
12:32 PM -5537.2°C -5537.2°C - 0.8 mph SW1.3 kmh SW 1.1 mph1.8 kmh -338605.1 mb 0.00 in0.0 mm 0.00 in0.0 mm 0.00 in0.0 mm
12:31 PM -5537.2°C -5537.2°C - Calm Calm 2.2 mph3.5 kmh -338605.1 mb 0.00 in0.0 mm 0.00 in0.0 mm 0.00 in0.0 mm
12:30 PM -5537.2°C -5537.2°C - 0.9 mph SW1.4 kmh SW 0.9 mph1.4 kmh -338605.1 mb 0.00 in0.0 mm 0.00 in0.0 mm 0.00 in0.0 mm
12:29 PM -5537.2°C -5537.2°C - 2.1 mph SSW3.4 kmh SSW 2.5 mph4.0 kmh -338605.1 mb 0.00 in0.0 mm 0.00 in0.0 mm 0.00 in0.0 mm
12:28 PM -5537.2°C -5537.2°C - 2.5 mph WSW4.0 kmh WSW 3.6 mph5.8 kmh -338605.1 mb 0.00 in0.0 mm 0.00 in0.0 mm 0.00 in0.0 mm
12:27 PM -5537.2°C -5537.2°C - Calm Calm 4.9 mph7.9 kmh -338605.1 mb 0.00 in0.0 mm 0.00 in0.0 mm 0.00 in0.0 mm
12:26 PM -5537.2°C -5537.2°C - Calm Calm -- -338605.1 mb 0.00 in0.0 mm 0.00 in0.0 mm 0.00 in0.0 mm
12:25 PM -5537.2°C -5537.2°C - Calm Calm -- -338605.1 mb 0.00 in0.0 mm 0.00 in0.0 mm 0.00 in0.0 mm
12:24 PM -5537.2°C -5537.2°C - Calm Calm 0.9 mph1.4 kmh -338605.1 mb 0.00 in0.0 mm 0.00 in0.0 mm 0.00 in0.0 mm
12:23 PM -5537.2°C -5537.2°C - Calm Calm -- -338605.1 mb 0.00 in0.0 mm 0.00 in0.0 mm 0.00 in0.0 mm
12:22 PM -5537.2°C -5537.2°C - Calm Calm -- -338605.1 mb 0.00 in0.0 mm 0.00 in0.0 mm 0.00 in0.0 mm
12:21 PM -5537.2°C -5537.2°C - Calm Calm -- -338605.1 mb 0.00 in0.0 mm 0.00 in0.0 mm 0.00 in0.0 mm
12:20 PM -5537.2°C -5537.2°C - Calm Calm -- -338605.1 mb 0.00 in0.0 mm 0.00 in0.0 mm 0.00 in0.0 mm
12:19 PM -5537.2°C -5537.2°C - Calm Calm -- -338605.1 mb 0.00 in0.0 mm 0.00 in0.0 mm 0.00 in0.0 mm
12:18 PM -5537.2°C -5537.2°C - Calm Calm -- -338605.1 mb 0.00 in0.0 mm 0.00 in0.0 mm 0.00 in0.0 mm
12:17 PM -5537.2°C -5537.2°C - Calm Calm -- -338605.1 mb 0.00 in0.0 mm 0.00 in0.0 mm 0.00 in0.0 mm
12:16 PM -5537.2°C -5537.2°C - Calm Calm -- -338605.1 mb 0.00 in0.0 mm 0.00 in0.0 mm 0.00 in0.0 mm
12:15 PM -5537.2°C -5537.2°C - Calm Calm -- -338605.1 mb 0.00 in0.0 mm 0.00 in0.0 mm 0.00 in0.0 mm
12:14 PM -5537.2°C -5537.2°C - Calm Calm -- -338605.1 mb 0.00 in0.0 mm 0.00 in0.0 mm 0.00 in0.0 mm
12:13 PM -5537.2°C -5537.2°C - Calm Calm -- -338605.1 mb 0.00 in0.0 mm 0.00 in0.0 mm 0.00 in0.0 mm
12:12 PM -5537.2°C -5537.2°C - Calm Calm -- -338605.1 mb 0.00 in0.0 mm 0.00 in0.0 mm 0.00 in0.0 mm
12:11 PM -5537.2°C -5537.2°C - Calm Calm -- -338605.1 mb 0.00 in0.0 mm 0.00 in0.0 mm 0.00 in0.0 mm
12:10 PM -5537.2°C -5537.2°C - Calm Calm -- -338605.1 mb 0.00 in0.0 mm 0.00 in0.0 mm 0.00 in0.0 mm
12:09 PM -5537.2°C -5537.2°C - Calm Calm -- -338605.1 mb 0.00 in0.0 mm 0.00 in0.0 mm 0.00 in0.0 mm
12:08 PM -5537.2°C -5537.2°C - Calm Calm -- -338605.1 mb 0.00 in0.0 mm 0.00 in0.0 mm 0.00 in0.0 mm
12:07 PM -5537.2°C -5537.2°C - Calm Calm -- -338605.1 mb 0.00 in0.0 mm 0.00 in0.0 mm 0.00 in0.0 mm
12:06 PM -5537.2°C -5537.2°C - Calm Calm -- -338605.1 mb 0.00 in0.0 mm 0.00 in0.0 mm 0.00 in0.0 mm
12:05 PM -5537.2°C -5537.2°C - Calm Calm -- -338605.1 mb 0.00 in0.0 mm 0.00 in0.0 mm 0.00 in0.0 mm
12:04 PM -5537.2°C -5537.2°C - Calm Calm -- -338605.1 mb 0.00 in0.0 mm 0.00 in0.0 mm 0.00 in0.0 mm
12:03 PM -5537.2°C -5537.2°C - Calm Calm -- -338605.1 mb 0.00 in0.0 mm 0.00 in0.0 mm 0.00 in0.0 mm
12:02 PM -5537.2°C -5537.2°C - Calm Calm -- -338605.1 mb 0.00 in0.0 mm 0.00 in0.0 mm 0.00 in0.0 mm
12:01 PM -5537.2°C -5537.2°C - Calm Calm -- -338605.1 mb 0.00 in0.0 mm 0.00 in0.0 mm 0.00 in0.0 mm
12:00 PM -5537.2°C -5537.2°C - Calm Calm -- -338605.1 mb 0.00 in0.0 mm 0.00 in0.0 mm 0.00 in0.0 mm
11:59 AM -5537.2°C -5537.2°C - Calm Calm -- -338605.1 mb 0.00 in0.0 mm 0.00 in0.0 mm 0.00 in0.0 mm
11:58 AM -5537.2°C -5537.2°C - Calm Calm -- -338605.1 mb 0.00 in0.0 mm 0.00 in0.0 mm 0.00 in0.0 mm
11:57 AM -5537.2°C -5537.2°C - Calm Calm -- -338605.1 mb 0.00 in0.0 mm 0.00 in0.0 mm 0.00 in0.0 mm
11:56 AM -5537.2°C -5537.2°C - Calm Calm -- -338605.1 mb 0.00 in0.0 mm 0.00 in0.0 mm 0.00 in0.0 mm
11:55 AM -5537.2°C -5537.2°C - Calm Calm -- -338605.1 mb 0.00 in0.0 mm 0.00 in0.0 mm 0.00 in0.0 mm
11:54 AM -5537.2°C -5537.2°C - Calm Calm -- -338605.1 mb 0.00 in0.0 mm 0.00 in0.0 mm 0.00 in0.0 mm
11:53 AM -5537.2°C -5537.2°C - Calm Calm 0.9 mph1.4 kmh -338605.1 mb 0.00 in0.0 mm 0.00 in0.0 mm 0.00 in0.0 mm
11:52 AM -5537.2°C -5537.2°C - Calm Calm -- -338605.1 mb 0.00 in0.0 mm 0.00 in0.0 mm 0.00 in0.0 mm
11:51 AM -5537.2°C -5537.2°C - Calm Calm -- -338605.1 mb 0.00 in0.0 mm 0.00 in0.0 mm 0.00 in0.0 mm
11:50 AM -5537.2°C -5537.2°C - Calm Calm -- -338605.1 mb 0.00 in0.0 mm 0.00 in0.0 mm 0.00 in0.0 mm
11:49 AM -5537.2°C -5537.2°C - Calm Calm -- -338605.1 mb 0.00 in0.0 mm 0.00 in0.0 mm 0.00 in0.0 mm
11:48 AM -5537.2°C -5537.2°C - Calm Calm -- -338605.1 mb 0.00 in0.0 mm 0.00 in0.0 mm 0.00 in0.0 mm
11:47 AM -5537.2°C -5537.2°C - Calm Calm -- -338605.1 mb 0.00 in0.0 mm 0.00 in0.0 mm 0.00 in0.0 mm
11:46 AM -5537.2°C -5537.2°C - Calm Calm -- -338605.1 mb 0.00 in0.0 mm 0.00 in0.0 mm 0.00 in0.0 mm
11:45 AM -5537.2°C -5537.2°C - Calm Calm -- -338605.1 mb 0.00 in0.0 mm 0.00 in0.0 mm 0.00 in0.0 mm
11:44 AM -5537.2°C -5537.2°C - Calm Calm -- -338605.1 mb 0.00 in0.0 mm 0.00 in0.0 mm 0.00 in0.0 mm
11:43 AM -5537.2°C -5537.2°C - Calm Calm -- -338605.1 mb 0.00 in0.0 mm 0.00 in0.0 mm 0.00 in0.0 mm
11:42 AM -5537.2°C -5537.2°C - Calm Calm -- -338605.1 mb 0.00 in0.0 mm 0.00 in0.0 mm 0.00 in0.0 mm
11:41 AM -5537.2°C -5537.2°C - Calm Calm -- -338605.1 mb 0.00 in0.0 mm 0.00 in0.0 mm 0.00 in0.0 mm
11:40 AM -5537.2°C -5537.2°C - Calm Calm -- -338605.1 mb 0.00 in0.0 mm 0.00 in0.0 mm 0.00 in0.0 mm
11:39 AM -5537.2°C -5537.2°C - Calm Calm -- -338605.1 mb 0.00 in0.0 mm 0.00 in0.0 mm 0.00 in0.0 mm
11:38 AM -5537.2°C -5537.2°C - Calm Calm -- -338605.1 mb 0.00 in0.0 mm 0.00 in0.0 mm 0.00 in0.0 mm
11:37 AM -5537.2°C -5537.2°C - Calm Calm -- -338605.1 mb 0.00 in0.0 mm 0.00 in0.0 mm 0.00 in0.0 mm
11:36 AM -5537.2°C -5537.2°C - Calm Calm -- -338605.1 mb 0.00 in0.0 mm 0.00 in0.0 mm 0.00 in0.0 mm
11:35 AM -5537.2°C -5537.2°C - Calm Calm -- -338605.1 mb 0.00 in0.0 mm 0.00 in0.0 mm 0.00 in0.0 mm
11:34 AM -5537.2°C -5537.2°C - Calm Calm -- -338605.1 mb 0.00 in0.0 mm 0.00 in0.0 mm 0.00 in0.0 mm
11:33 AM -5537.2°C -5537.2°C - Calm Calm -- -338605.1 mb 0.00 in0.0 mm 0.00 in0.0 mm 0.00 in0.0 mm
11:32 AM -5537.2°C -5537.2°C - Calm Calm -- -338605.1 mb 0.00 in0.0 mm 0.00 in0.0 mm 0.00 in0.0 mm
11:31 AM -5537.2°C -5537.2°C - Calm Calm 1.1 mph1.8 kmh -338605.1 mb 0.00 in0.0 mm 0.00 in0.0 mm 0.00 in0.0 mm
11:30 AM -5537.2°C -5537.2°C - Calm Calm -- -338605.1 mb 0.00 in0.0 mm 0.00 in0.0 mm 0.00 in0.0 mm
11:29 AM -5537.2°C -5537.2°C - Calm Calm -- -338605.1 mb 0.00 in0.0 mm 0.00 in0.0 mm 0.00 in0.0 mm
11:28 AM -5537.2°C -5537.2°C - Calm Calm -- -338605.1 mb 0.00 in0.0 mm 0.00 in0.0 mm 0.00 in0.0 mm
11:27 AM -5537.2°C -5537.2°C - Calm Calm -- -338605.1 mb 0.00 in0.0 mm 0.00 in0.0 mm 0.00 in0.0 mm
11:26 AM -5537.2°C -5537.2°C - Calm Calm -- -338605.1 mb 0.00 in0.0 mm 0.00 in0.0 mm 0.00 in0.0 mm
11:25 AM -5537.2°C -5537.2°C - Calm Calm -- -338605.1 mb 0.00 in0.0 mm 0.00 in0.0 mm 0.00 in0.0 mm
11:24 AM -5537.2°C -5537.2°C - Calm Calm -- -338605.1 mb 0.00 in0.0 mm 0.00 in0.0 mm 0.00 in0.0 mm
11:23 AM -5537.2°C -5537.2°C - Calm Calm -- -338605.1 mb 0.00 in0.0 mm 0.00 in0.0 mm 0.00 in0.0 mm
11:22 AM -5537.2°C -5537.2°C - Calm Calm -- -338605.1 mb 0.00 in0.0 mm 0.00 in0.0 mm 0.00 in0.0 mm
11:21 AM -5537.2°C -5537.2°C - Calm Calm -- -338605.1 mb 0.00 in0.0 mm 0.00 in0.0 mm 0.00 in0.0 mm
11:20 AM -5537.2°C -5537.2°C - Calm Calm -- -338605.1 mb 0.00 in0.0 mm 0.00 in0.0 mm 0.00 in0.0 mm
11:19 AM -5537.2°C -5537.2°C - Calm Calm -- -338605.1 mb 0.00 in0.0 mm 0.00 in0.0 mm 0.00 in0.0 mm
11:18 AM -5537.2°C -5537.2°C - Calm Calm -- -338605.1 mb 0.00 in0.0 mm 0.00 in0.0 mm 0.00 in0.0 mm
11:17 AM -5537.2°C -5537.2°C - Calm Calm -- -338605.1 mb 0.00 in0.0 mm 0.00 in0.0 mm 0.00 in0.0 mm
11:16 AM -5537.2°C -5537.2°C - Calm Calm -- -338605.1 mb 0.00 in0.0 mm 0.00 in0.0 mm 0.00 in0.0 mm
11:15 AM -5537.2°C -5537.2°C - Calm Calm -- -338605.1 mb 0.00 in0.0 mm 0.00 in0.0 mm 0.00 in0.0 mm
11:14 AM -5537.2°C -5537.2°C - Calm Calm -- -338605.1 mb 0.00 in0.0 mm 0.00 in0.0 mm 0.00 in0.0 mm
11:13 AM -5537.2°C -5537.2°C - Calm Calm -- -338605.1 mb 0.00 in0.0 mm 0.00 in0.0 mm 0.00 in0.0 mm
11:12 AM -5537.2°C -5537.2°C - Calm Calm -- -338605.1 mb 0.00 in0.0 mm 0.00 in0.0 mm 0.00 in0.0 mm
11:11 AM -5537.2°C -5537.2°C - Calm Calm -- -338605.1 mb 0.00 in0.0 mm 0.00 in0.0 mm 0.00 in0.0 mm
11:10 AM -5537.2°C -5537.2°C - Calm Calm -- -338605.1 mb 0.00 in0.0 mm 0.00 in0.0 mm 0.00 in0.0 mm
11:09 AM -5537.2°C -5537.2°C - Calm Calm -- -338605.1 mb 0.00 in0.0 mm 0.00 in0.0 mm 0.00 in0.0 mm
11:08 AM -5537.2°C -5537.2°C - Calm Calm -- -338605.1 mb 0.00 in0.0 mm 0.00 in0.0 mm 0.00 in0.0 mm
11:07 AM -5537.2°C -5537.2°C - Calm Calm -- -338605.1 mb 0.00 in0.0 mm 0.00 in0.0 mm 0.00 in0.0 mm
11:06 AM -5537.2°C -5537.2°C - Calm Calm -- -338605.1 mb 0.00 in0.0 mm 0.00 in0.0 mm 0.00 in0.0 mm
11:05 AM -5537.2°C -5537.2°C - Calm Calm -- -338605.1 mb 0.00 in0.0 mm 0.00 in0.0 mm 0.00 in0.0 mm
11:04 AM -5537.2°C -5537.2°C - Calm Calm -- -338605.1 mb 0.00 in0.0 mm 0.00 in0.0 mm 0.00 in0.0 mm
11:03 AM -5537.2°C -5537.2°C - Calm Calm -- -338605.1 mb 0.00 in0.0 mm 0.00 in0.0 mm 0.00 in0.0 mm
11:02 AM -5537.2°C -5537.2°C - Calm Calm -- -338605.1 mb 0.00 in0.0 mm 0.00 in0.0 mm 0.00 in0.0 mm
11:01 AM -5537.2°C -5537.2°C - Calm Calm -- -338605.1 mb 0.00 in0.0 mm 0.00 in0.0 mm 0.00 in0.0 mm
11:00 AM -5537.2°C -5537.2°C - Calm Calm -- -338605.1 mb 0.00 in0.0 mm 0.00 in0.0 mm 0.00 in0.0 mm
10:59 AM -5537.2°C -5537.2°C - Calm Calm -- -338605.1 mb 0.00 in0.0 mm 0.00 in0.0 mm 0.00 in0.0 mm
10:58 AM -5537.2°C -5537.2°C - Calm Calm -- -338605.1 mb 0.00 in0.0 mm 0.00 in0.0 mm 0.00 in0.0 mm
10:57 AM -5537.2°C -5537.2°C - Calm Calm -- -338605.1 mb 0.00 in0.0 mm 0.00 in0.0 mm 0.00 in0.0 mm
10:56 AM -5537.2°C -5537.2°C - Calm Calm -- -338605.1 mb 0.00 in0.0 mm 0.00 in0.0 mm 0.00 in0.0 mm
10:55 AM -5537.2°C -5537.2°C - Calm Calm -- -338605.1 mb 0.00 in0.0 mm 0.00 in0.0 mm 0.00 in0.0 mm
10:54 AM -5537.2°C -5537.2°C - Calm Calm -- -338605.1 mb 0.00 in0.0 mm 0.00 in0.0 mm 0.00 in0.0 mm
10:53 AM -5537.2°C -5537.2°C - Calm Calm -- -338605.1 mb 0.00 in0.0 mm 0.00 in0.0 mm 0.00 in0.0 mm
10:52 AM -5537.2°C -5537.2°C - Calm Calm -- -338605.1 mb 0.00 in0.0 mm 0.00 in0.0 mm 0.00 in0.0 mm
10:51 AM -5537.2°C -5537.2°C - Calm Calm -- -338605.1 mb 0.00 in0.0 mm 0.00 in0.0 mm 0.00 in0.0 mm
10:50 AM -5537.2°C -5537.2°C - Calm Calm -- -338605.1 mb 0.00 in0.0 mm 0.00 in0.0 mm 0.00 in0.0 mm
10:49 AM -5537.2°C -5537.2°C - Calm Calm -- -338605.1 mb 0.00 in0.0 mm 0.00 in0.0 mm 0.00 in0.0 mm
10:48 AM -5537.2°C -5537.2°C - Calm Calm -- -338605.1 mb 0.00 in0.0 mm 0.00 in0.0 mm 0.00 in0.0 mm
10:47 AM -5537.2°C -5537.2°C - Calm Calm -- -338605.1 mb 0.00 in0.0 mm 0.00 in0.0 mm 0.00 in0.0 mm
10:46 AM -5537.2°C -5537.2°C - Calm Calm -- -338605.1 mb 0.00 in0.0 mm 0.00 in0.0 mm 0.00 in0.0 mm
10:45 AM -5537.2°C -5537.2°C - Calm Calm -- -338605.1 mb 0.00 in0.0 mm 0.00 in0.0 mm 0.00 in0.0 mm
10:44 AM -5537.2°C -5537.2°C - Calm Calm -- -338605.1 mb 0.00 in0.0 mm 0.00 in0.0 mm 0.00 in0.0 mm
10:43 AM -5537.2°C -5537.2°C - Calm Calm -- -338605.1 mb 0.00 in0.0 mm 0.00 in0.0 mm 0.00 in0.0 mm
10:42 AM -5537.2°C -5537.2°C - Calm Calm -- -338605.1 mb 0.00 in0.0 mm 0.00 in0.0 mm 0.00 in0.0 mm
10:41 AM -5537.2°C -5537.2°C - Calm Calm -- -338605.1 mb 0.00 in0.0 mm 0.00 in0.0 mm 0.00 in0.0 mm
10:40 AM -5537.2°C -5537.2°C - Calm Calm -- -338605.1 mb 0.00 in0.0 mm 0.00 in0.0 mm 0.00 in0.0 mm
10:39 AM -5537.2°C -5537.2°C - Calm Calm -- -338605.1 mb 0.00 in0.0 mm 0.00 in0.0 mm 0.00 in0.0 mm
10:38 AM -5537.2°C -5537.2°C - Calm Calm -- -338605.1 mb 0.00 in0.0 mm 0.00 in0.0 mm 0.00 in0.0 mm
10:37 AM -5537.2°C -5537.2°C - Calm Calm -- -338605.1 mb 0.00 in0.0 mm 0.00 in0.0 mm 0.00 in0.0 mm
10:36 AM -5537.2°C -5537.2°C - Calm Calm -- -338605.1 mb 0.00 in0.0 mm 0.00 in0.0 mm 0.00 in0.0 mm
10:35 AM -5537.2°C -5537.2°C - Calm Calm -- -338605.1 mb 0.00 in0.0 mm 0.00 in0.0 mm 0.00 in0.0 mm
10:34 AM -5537.2°C -5537.2°C - Calm Calm -- -338605.1 mb 0.00 in0.0 mm 0.00 in0.0 mm 0.00 in0.0 mm
10:33 AM -5537.2°C -5537.2°C - Calm Calm -- -338605.1 mb 0.00 in0.0 mm 0.00 in0.0 mm 0.00 in0.0 mm
10:32 AM -5537.2°C -5537.2°C - Calm Calm -- -338605.1 mb 0.00 in0.0 mm 0.00 in0.0 mm 0.00 in0.0 mm
10:31 AM -5537.2°C -5537.2°C - Calm Calm -- -338605.1 mb 0.00 in0.0 mm 0.00 in0.0 mm 0.00 in0.0 mm
10:30 AM -5537.2°C -5537.2°C - Calm Calm 0.9 mph1.4 kmh -338605.1 mb 0.00 in0.0 mm 0.00 in0.0 mm 0.00 in0.0 mm
10:29 AM -5537.2°C -5537.2°C - Calm Calm -- -338605.1 mb 0.00 in0.0 mm 0.00 in0.0 mm 0.00 in0.0 mm
10:28 AM -5537.2°C -5537.2°C - Calm Calm -- -338605.1 mb 0.00 in0.0 mm 0.00 in0.0 mm 0.00 in0.0 mm
10:27 AM -5537.2°C -5537.2°C - Calm Calm -- -338605.1 mb 0.00 in0.0 mm 0.00 in0.0 mm 0.00 in0.0 mm
10:26 AM -5537.2°C -5537.2°C - Calm Calm -- -338605.1 mb 0.00 in0.0 mm 0.00 in0.0 mm 0.00 in0.0 mm
10:25 AM -5537.2°C -5537.2°C - Calm Calm -- -338605.1 mb 0.00 in0.0 mm 0.00 in0.0 mm 0.00 in0.0 mm
10:24 AM -5537.2°C -5537.2°C - Calm Calm -- -338605.1 mb 0.00 in0.0 mm 0.00 in0.0 mm 0.00 in0.0 mm
10:23 AM -5537.2°C -5537.2°C - Calm Calm -- -338605.1 mb 0.00 in0.0 mm 0.00 in0.0 mm 0.00 in0.0 mm
10:22 AM -5537.2°C -5537.2°C - Calm Calm -- -338605.1 mb 0.00 in0.0 mm 0.00 in0.0 mm 0.00 in0.0 mm
10:21 AM -5537.2°C -5537.2°C - Calm Calm -- -338605.1 mb 0.00 in0.0 mm 0.00 in0.0 mm 0.00 in0.0 mm
10:20 AM -5537.2°C -5537.2°C - Calm Calm -- -338605.1 mb 0.00 in0.0 mm 0.00 in0.0 mm 0.00 in0.0 mm
10:19 AM -5537.2°C -5537.2°C - Calm Calm -- -338605.1 mb 0.00 in0.0 mm 0.00 in0.0 mm 0.00 in0.0 mm
10:18 AM -5537.2°C -5537.2°C - Calm Calm -- -338605.1 mb 0.00 in0.0 mm 0.00 in0.0 mm 0.00 in0.0 mm
10:17 AM -5537.2°C -5537.2°C - Calm Calm -- -338605.1 mb 0.00 in0.0 mm 0.00 in0.0 mm 0.00 in0.0 mm
10:16 AM -5537.2°C -5537.2°C - Calm Calm -- -338605.1 mb 0.00 in0.0 mm 0.00 in0.0 mm 0.00 in0.0 mm
10:15 AM -5537.2°C -5537.2°C - Calm Calm 0.9 mph1.4 kmh -338605.1 mb 0.00 in0.0 mm 0.00 in0.0 mm 0.00 in0.0 mm
10:14 AM -5537.2°C -5537.2°C - Calm Calm -- -338605.1 mb 0.00 in0.0 mm 0.00 in0.0 mm 0.00 in0.0 mm
10:13 AM -5537.2°C -5537.2°C - Calm Calm -- -338605.1 mb 0.00 in0.0 mm 0.00 in0.0 mm 0.00 in0.0 mm
10:12 AM -5537.2°C -5537.2°C - Calm Calm -- -338605.1 mb 0.00 in0.0 mm 0.00 in0.0 mm 0.00 in0.0 mm
10:11 AM -5537.2°C -5537.2°C - Calm Calm -- -338605.1 mb 0.00 in0.0 mm 0.00 in0.0 mm 0.00 in0.0 mm
10:10 AM -5537.2°C -5537.2°C - Calm Calm -- -338605.1 mb 0.00 in0.0 mm 0.00 in0.0 mm 0.00 in0.0 mm
10:09 AM -5537.2°C -5537.2°C - Calm Calm -- -338605.1 mb 0.00 in0.0 mm 0.00 in0.0 mm 0.00 in0.0 mm
10:08 AM -5537.2°C -5537.2°C - Calm Calm -- -338605.1 mb 0.00 in0.0 mm 0.00 in0.0 mm 0.00 in0.0 mm
10:07 AM -5537.2°C -5537.2°C - Calm Calm -- -338605.1 mb 0.00 in0.0 mm 0.00 in0.0 mm 0.00 in0.0 mm
10:06 AM -5537.2°C -5537.2°C - Calm Calm -- -338605.1 mb 0.00 in0.0 mm 0.00 in0.0 mm 0.00 in0.0 mm
10:05 AM -5537.2°C -5537.2°C - Calm Calm -- -338605.1 mb 0.00 in0.0 mm 0.00 in0.0 mm 0.00 in0.0 mm
10:04 AM -5537.2°C -5537.2°C - Calm Calm -- -338605.1 mb 0.00 in0.0 mm 0.00 in0.0 mm 0.00 in0.0 mm
10:03 AM -5537.2°C -5537.2°C - Calm Calm -- -338605.1 mb 0.00 in0.0 mm 0.00 in0.0 mm 0.00 in0.0 mm
10:02 AM -5537.2°C -5537.2°C - Calm Calm -- -338605.1 mb 0.00 in0.0 mm 0.00 in0.0 mm 0.00 in0.0 mm
10:01 AM -5537.2°C -5537.2°C - Calm Calm -- -338605.1 mb 0.00 in0.0 mm 0.00 in0.0 mm 0.00 in0.0 mm
10:00 AM -5537.2°C -5537.2°C - Calm Calm -- -338605.1 mb 0.00 in0.0 mm 0.00 in0.0 mm 0.00 in0.0 mm
09:59 AM -5537.2°C -5537.2°C - Calm Calm -- -338605.1 mb 0.00 in0.0 mm 0.00 in0.0 mm 0.00 in0.0 mm
09:58 AM -5537.2°C -5537.2°C - Calm Calm -- -338605.1 mb 0.00 in0.0 mm 0.00 in0.0 mm 0.00 in0.0 mm
09:57 AM -5537.2°C -5537.2°C - Calm Calm -- -338605.1 mb 0.00 in0.0 mm 0.00 in0.0 mm 0.00 in0.0 mm
09:56 AM -5537.2°C -5537.2°C - Calm Calm -- -338605.1 mb 0.00 in0.0 mm 0.00 in0.0 mm 0.00 in0.0 mm
09:55 AM -5537.2°C -5537.2°C - Calm Calm -- -338605.1 mb 0.00 in0.0 mm 0.00 in0.0 mm 0.00 in0.0 mm
09:54 AM -5537.2°C -5537.2°C - Calm Calm -- -338605.1 mb 0.00 in0.0 mm 0.00 in0.0 mm 0.00 in0.0 mm
09:53 AM -5537.2°C -5537.2°C - Calm Calm -- -338605.1 mb 0.00 in0.0 mm 0.00 in0.0 mm 0.00 in0.0 mm
09:52 AM -5537.2°C -5537.2°C - Calm Calm -- -338605.1 mb 0.00 in0.0 mm 0.00 in0.0 mm 0.00 in0.0 mm
09:51 AM -5537.2°C -5537.2°C - Calm Calm -- -338605.1 mb 0.00 in0.0 mm 0.00 in0.0 mm 0.00 in0.0 mm
09:50 AM -5537.2°C -5537.2°C - Calm Calm -- -338605.1 mb 0.00 in0.0 mm 0.00 in0.0 mm 0.00 in0.0 mm
09:49 AM -5537.2°C -5537.2°C - Calm Calm -- -338605.1 mb 0.00 in0.0 mm 0.00 in0.0 mm 0.00 in0.0 mm
09:48 AM -5537.2°C -5537.2°C - Calm Calm -- -338605.1 mb 0.00 in0.0 mm 0.00 in0.0 mm 0.00 in0.0 mm
09:47 AM -5537.2°C -5537.2°C - Calm Calm -- -338605.1 mb 0.00 in0.0 mm 0.00 in0.0 mm 0.00 in0.0 mm
09:46 AM -5537.2°C -5537.2°C - Calm Calm -- -338605.1 mb 0.00 in0.0 mm 0.00 in0.0 mm 0.00 in0.0 mm
09:45 AM -5537.2°C -5537.2°C - Calm Calm -- -338605.1 mb 0.00 in0.0 mm 0.00 in0.0 mm 0.00 in0.0 mm
09:44 AM -5537.2°C -5537.2°C - Calm Calm -- -338605.1 mb 0.00 in0.0 mm 0.00 in0.0 mm 0.00 in0.0 mm
09:43 AM -5537.2°C -5537.2°C - Calm Calm -- -338605.1 mb 0.00 in0.0 mm 0.00 in0.0 mm 0.00 in0.0 mm
09:42 AM -5537.2°C -5537.2°C - Calm Calm -- -338605.1 mb 0.00 in0.0 mm 0.00 in0.0 mm 0.00 in0.0 mm
09:41 AM -5537.2°C -5537.2°C - Calm Calm -- -338605.1 mb 0.00 in0.0 mm 0.00 in0.0 mm 0.00 in0.0 mm
09:40 AM -5537.2°C -5537.2°C - Calm Calm -- -338605.1 mb 0.00 in0.0 mm 0.00 in0.0 mm 0.00 in0.0 mm
09:39 AM -5537.2°C -5537.2°C - Calm Calm -- -338605.1 mb 0.00 in0.0 mm 0.00 in0.0 mm 0.00 in0.0 mm
09:38 AM -5537.2°C -5537.2°C - Calm Calm -- -338605.1 mb 0.00 in0.0 mm 0.00 in0.0 mm 0.00 in0.0 mm
09:37 AM -5537.2°C -5537.2°C - Calm Calm -- -338605.1 mb 0.00 in0.0 mm 0.00 in0.0 mm 0.00 in0.0 mm
09:36 AM -5537.2°C -5537.2°C - Calm Calm -- -338605.1 mb 0.00 in0.0 mm 0.00 in0.0 mm 0.00 in0.0 mm
09:35 AM -5537.2°C -5537.2°C - Calm Calm -- -338605.1 mb 0.00 in0.0 mm 0.00 in0.0 mm 0.00 in0.0 mm
09:34 AM -5537.2°C -5537.2°C - Calm Calm -- -338605.1 mb 0.00 in0.0 mm 0.00 in0.0 mm 0.00 in0.0 mm
09:33 AM -5537.2°C -5537.2°C - Calm Calm -- -338605.1 mb 0.00 in0.0 mm 0.00 in0.0 mm 0.00 in0.0 mm
09:32 AM -5537.2°C -5537.2°C - Calm Calm -- -338605.1 mb 0.00 in0.0 mm 0.00 in0.0 mm 0.00 in0.0 mm
09:31 AM -5537.2°C -5537.2°C - Calm Calm -- -338605.1 mb 0.00 in0.0 mm 0.00 in0.0 mm 0.00 in0.0 mm
09:30 AM -5537.2°C -5537.2°C - Calm Calm -- -338605.1 mb 0.00 in0.0 mm 0.00 in0.0 mm 0.00 in0.0 mm
09:29 AM -5537.2°C -5537.2°C - Calm Calm -- -338605.1 mb 0.00 in0.0 mm 0.00 in0.0 mm 0.00 in0.0 mm
09:28 AM -5537.2°C -5537.2°C - Calm Calm -- -338605.1 mb 0.00 in0.0 mm 0.00 in0.0 mm 0.00 in0.0 mm
09:27 AM -5537.2°C -5537.2°C - Calm Calm -- -338605.1 mb 0.00 in0.0 mm 0.00 in0.0 mm 0.00 in0.0 mm
09:26 AM -5537.2°C -5537.2°C - Calm Calm -- -338605.1 mb 0.00 in0.0 mm 0.00 in0.0 mm 0.00 in0.0 mm
09:25 AM -5537.2°C -5537.2°C - Calm Calm -- -338605.1 mb 0.00 in0.0 mm 0.00 in0.0 mm 0.00 in0.0 mm
09:24 AM -5537.2°C -5537.2°C - Calm Calm -- -338605.1 mb 0.00 in0.0 mm 0.00 in0.0 mm 0.00 in0.0 mm
09:23 AM -5537.2°C -5537.2°C - Calm Calm -- -338605.1 mb 0.00 in0.0 mm 0.00 in0.0 mm 0.00 in0.0 mm
09:22 AM -5537.2°C -5537.2°C - Calm Calm -- -338605.1 mb 0.00 in0.0 mm 0.00 in0.0 mm 0.00 in0.0 mm
09:21 AM -5537.2°C -5537.2°C - Calm Calm -- -338605.1 mb 0.00 in0.0 mm 0.00 in0.0 mm 0.00 in0.0 mm
09:20 AM -5537.2°C -5537.2°C - Calm Calm -- -338605.1 mb 0.00 in0.0 mm 0.00 in0.0 mm 0.00 in0.0 mm
09:19 AM -5537.2°C -5537.2°C - Calm Calm -- -338605.1 mb 0.00 in0.0 mm 0.00 in0.0 mm 0.00 in0.0 mm
09:18 AM -5537.2°C -5537.2°C - Calm Calm -- -338605.1 mb 0.00 in0.0 mm 0.00 in0.0 mm 0.00 in0.0 mm
09:17 AM -5537.2°C -5537.2°C - Calm Calm -- -338605.1 mb 0.00 in0.0 mm 0.00 in0.0 mm 0.00 in0.0 mm
09:16 AM -5537.2°C -5537.2°C - Calm Calm -- -338605.1 mb 0.00 in0.0 mm 0.00 in0.0 mm 0.00 in0.0 mm
09:15 AM -5537.2°C -5537.2°C - Calm Calm 0.9 mph1.4 kmh -338605.1 mb 0.00 in0.0 mm 0.00 in0.0 mm 0.00 in0.0 mm
09:14 AM -5537.2°C -5537.2°C - Calm Calm -- -338605.1 mb 0.00 in0.0 mm 0.00 in0.0 mm 0.00 in0.0 mm
09:13 AM -5537.2°C -5537.2°C - Calm Calm -- -338605.1 mb 0.00 in0.0 mm 0.00 in0.0 mm 0.00 in0.0 mm
09:12 AM -5537.2°C -5537.2°C - Calm Calm 0.9 mph1.4 kmh -338605.1 mb 0.00 in0.0 mm 0.00 in0.0 mm 0.00 in0.0 mm
09:11 AM -5537.2°C -5537.2°C - Calm Calm -- -338605.1 mb 0.00 in0.0 mm 0.00 in0.0 mm 0.00 in0.0 mm
09:10 AM -5537.2°C -5537.2°C - Calm Calm -- -338605.1 mb 0.00 in0.0 mm 0.00 in0.0 mm 0.00 in0.0 mm
09:09 AM -5537.2°C -5537.2°C - Calm Calm -- -338605.1 mb 0.00 in0.0 mm 0.00 in0.0 mm 0.00 in0.0 mm
09:08 AM -5537.2°C -5537.2°C - Calm Calm -- -338605.1 mb 0.00 in0.0 mm 0.00 in0.0 mm 0.00 in0.0 mm
09:07 AM -5537.2°C -5537.2°C - Calm Calm -- -338605.1 mb 0.00 in0.0 mm 0.00 in0.0 mm 0.00 in0.0 mm
09:06 AM -5537.2°C -5537.2°C - Calm Calm -- -338605.1 mb 0.00 in0.0 mm 0.00 in0.0 mm 0.00 in0.0 mm
09:05 AM -5537.2°C -5537.2°C - Calm Calm -- -338605.1 mb 0.00 in0.0 mm 0.00 in0.0 mm 0.00 in0.0 mm
09:04 AM -5537.2°C -5537.2°C - Calm Calm -- -338605.1 mb 0.00 in0.0 mm 0.00 in0.0 mm 0.00 in0.0 mm
09:03 AM -5537.2°C -5537.2°C - Calm Calm -- -338605.1 mb 0.00 in0.0 mm 0.00 in0.0 mm 0.00 in0.0 mm
09:02 AM -5537.2°C -5537.2°C - Calm Calm -- -338605.1 mb 0.00 in0.0 mm 0.00 in0.0 mm 0.00 in0.0 mm
09:01 AM -5537.2°C -5537.2°C - Calm Calm -- -338605.1 mb 0.00 in0.0 mm 0.00 in0.0 mm 0.00 in0.0 mm
09:00 AM -5537.2°C -5537.2°C - Calm Calm -- -338605.1 mb 0.00 in0.0 mm 0.00 in0.0 mm 0.00 in0.0 mm
08:59 AM -5537.2°C -5537.2°C - Calm Calm -- -338605.1 mb 0.00 in0.0 mm 0.00 in0.0 mm 0.00 in0.0 mm
08:58 AM -5537.2°C -5537.2°C - Calm Calm -- -338605.1 mb 0.00 in0.0 mm 0.00 in0.0 mm 0.00 in0.0 mm
08:57 AM -5537.2°C -5537.2°C - Calm Calm -- -338605.1 mb 0.00 in0.0 mm 0.00 in0.0 mm 0.00 in0.0 mm
08:56 AM -5537.2°C -5537.2°C - Calm Calm -- -338605.1 mb 0.00 in0.0 mm 0.00 in0.0 mm 0.00 in0.0 mm
08:55 AM -5537.2°C -5537.2°C - Calm Calm -- -338605.1 mb 0.00 in0.0 mm 0.00 in0.0 mm 0.00 in0.0 mm
08:54 AM -5537.2°C -5537.2°C - Calm Calm 0.9 mph1.4 kmh -338605.1 mb 0.00 in0.0 mm 0.00 in0.0 mm 0.00 in0.0 mm
08:53 AM -5537.2°C -5537.2°C - Calm Calm -- -338605.1 mb 0.00 in0.0 mm 0.00 in0.0 mm 0.00 in0.0 mm
08:52 AM -5537.2°C -5537.2°C - Calm Calm -- -338605.1 mb 0.00 in0.0 mm 0.00 in0.0 mm 0.00 in0.0 mm
08:51 AM -5537.2°C -5537.2°C - Calm Calm -- -338605.1 mb 0.00 in0.0 mm 0.00 in0.0 mm 0.00 in0.0 mm
08:50 AM -5537.2°C -5537.2°C - Calm Calm -- -338605.1 mb 0.00 in0.0 mm 0.00 in0.0 mm 0.00 in0.0 mm
08:49 AM -5537.2°C -5537.2°C - Calm Calm -- -338605.1 mb 0.00 in0.0 mm 0.00 in0.0 mm 0.00 in0.0 mm
08:48 AM -5537.2°C -5537.2°C - Calm Calm -- -338605.1 mb 0.00 in0.0 mm 0.00 in0.0 mm 0.00 in0.0 mm
08:47 AM -5537.2°C -5537.2°C - Calm Calm -- -338605.1 mb 0.00 in0.0 mm 0.00 in0.0 mm 0.00 in0.0 mm
08:46 AM -5537.2°C -5537.2°C - Calm Calm -- -338605.1 mb 0.00 in0.0 mm 0.00 in0.0 mm 0.00 in0.0 mm
08:45 AM -5537.2°C -5537.2°C - Calm Calm -- -338605.1 mb 0.00 in0.0 mm 0.00 in0.0 mm 0.00 in0.0 mm
08:44 AM -5537.2°C -5537.2°C - Calm Calm -- -338605.1 mb 0.00 in0.0 mm 0.00 in0.0 mm 0.00 in0.0 mm
08:43 AM -5537.2°C -5537.2°C - Calm Calm -- -338605.1 mb 0.00 in0.0 mm 0.00 in0.0 mm 0.00 in0.0 mm
08:42 AM -5537.2°C -5537.2°C - Calm Calm 0.9 mph1.4 kmh -338605.1 mb 0.00 in0.0 mm 0.00 in0.0 mm 0.00 in0.0 mm
08:41 AM -5537.2°C -5537.2°C - Calm Calm -- -338605.1 mb 0.00 in0.0 mm 0.00 in0.0 mm 0.00 in0.0 mm
08:40 AM -5537.2°C -5537.2°C - Calm Calm -- -338605.1 mb 0.00 in0.0 mm 0.00 in0.0 mm 0.00 in0.0 mm
08:39 AM -5537.2°C -5537.2°C - Calm Calm -- -338605.1 mb 0.00 in0.0 mm 0.00 in0.0 mm 0.00 in0.0 mm
08:38 AM -5537.2°C -5537.2°C - Calm Calm -- -338605.1 mb 0.00 in0.0 mm 0.00 in0.0 mm 0.00 in0.0 mm
08:37 AM -5537.2°C -5537.2°C - Calm Calm -- -338605.1 mb 0.00 in0.0 mm 0.00 in0.0 mm 0.00 in0.0 mm
08:36 AM -5537.2°C -5537.2°C - Calm Calm -- -338605.1 mb 0.00 in0.0 mm 0.00 in0.0 mm 0.00 in0.0 mm
08:35 AM -5537.2°C -5537.2°C - Calm Calm -- -338605.1 mb 0.00 in0.0 mm 0.00 in0.0 mm 0.00 in0.0 mm
08:34 AM -5537.2°C -5537.2°C - Calm Calm -- -338605.1 mb 0.00 in0.0 mm 0.00 in0.0 mm 0.00 in0.0 mm
08:33 AM -5537.2°C -5537.2°C - Calm Calm -- -338605.1 mb 0.00 in0.0 mm 0.00 in0.0 mm 0.00 in0.0 mm
08:32 AM -5537.2°C -5537.2°C - Calm Calm -- -338605.1 mb 0.00 in0.0 mm 0.00 in0.0 mm 0.00 in0.0 mm
08:31 AM -5537.2°C -5537.2°C - Calm Calm -- -338605.1 mb 0.00 in0.0 mm 0.00 in0.0 mm 0.00 in0.0 mm
08:30 AM -5537.2°C -5537.2°C - Calm Calm -- -338605.1 mb 0.00 in0.0 mm 0.00 in0.0 mm 0.00 in0.0 mm
08:29 AM -5537.2°C -5537.2°C - Calm Calm -- -338605.1 mb 0.00 in0.0 mm 0.00 in0.0 mm 0.00 in0.0 mm
08:28 AM -5537.2°C -5537.2°C - Calm Calm -- -338605.1 mb 0.00 in0.0 mm 0.00 in0.0 mm 0.00 in0.0 mm
08:27 AM -5537.2°C -5537.2°C - Calm Calm -- -338605.1 mb 0.00 in0.0 mm 0.00 in0.0 mm 0.00 in0.0 mm
08:26 AM -5537.2°C -5537.2°C - Calm Calm 0.9 mph1.4 kmh -338605.1 mb 0.00 in0.0 mm 0.00 in0.0 mm 0.00 in0.0 mm
08:25 AM -5537.2°C -5537.2°C - Calm Calm -- -338605.1 mb 0.00 in0.0 mm 0.00 in0.0 mm 0.00 in0.0 mm
08:24 AM -5537.2°C -5537.2°C - Calm Calm -- -338605.1 mb 0.00 in0.0 mm 0.00 in0.0 mm 0.00 in0.0 mm
08:23 AM -5537.2°C -5537.2°C - Calm Calm -- -338605.1 mb 0.00 in0.0 mm 0.00 in0.0 mm 0.00 in0.0 mm
08:22 AM -5537.2°C -5537.2°C - Calm Calm -- -338605.1 mb 0.00 in0.0 mm 0.00 in0.0 mm 0.00 in0.0 mm
08:21 AM -5537.2°C -5537.2°C - Calm Calm -- -338605.1 mb 0.00 in0.0 mm 0.00 in0.0 mm 0.00 in0.0 mm
08:20 AM -5537.2°C -5537.2°C - Calm Calm -- -338605.1 mb 0.00 in0.0 mm 0.00 in0.0 mm 0.00 in0.0 mm
08:19 AM -5537.2°C -5537.2°C - Calm Calm -- -338605.1 mb 0.00 in0.0 mm 0.00 in0.0 mm 0.00 in0.0 mm
08:18 AM -5537.2°C -5537.2°C - Calm Calm -- -338605.1 mb 0.00 in0.0 mm 0.00 in0.0 mm 0.00 in0.0 mm
08:17 AM -5537.2°C -5537.2°C - Calm Calm 1.1 mph1.8 kmh -338605.1 mb 0.00 in0.0 mm 0.00 in0.0 mm 0.00 in0.0 mm
08:16 AM -5537.2°C -5537.2°C - Calm Calm 0.9 mph1.4 kmh -338605.1 mb 0.00 in0.0 mm 0.00 in0.0 mm 0.00 in0.0 mm
08:15 AM -5537.2°C -5537.2°C - Calm Calm -- -338605.1 mb 0.00 in0.0 mm 0.00 in0.0 mm 0.00 in0.0 mm
08:14 AM -5537.2°C -5537.2°C - Calm Calm -- -338605.1 mb 0.00 in0.0 mm 0.00 in0.0 mm 0.00 in0.0 mm
08:13 AM -5537.2°C -5537.2°C - Calm Calm -- -338605.1 mb 0.00 in0.0 mm 0.00 in0.0 mm 0.00 in0.0 mm
08:12 AM -5537.2°C -5537.2°C - Calm Calm 0.9 mph1.4 kmh -338605.1 mb 0.00 in0.0 mm 0.00 in0.0 mm 0.00 in0.0 mm
08:11 AM -5537.2°C -5537.2°C - Calm Calm 0.9 mph1.4 kmh -338605.1 mb 0.00 in0.0 mm 0.00 in0.0 mm 0.00 in0.0 mm
08:10 AM -5537.2°C -5537.2°C - Calm Calm 0.9 mph1.4 kmh -338605.1 mb 0.00 in0.0 mm 0.00 in0.0 mm 0.00 in0.0 mm
08:09 AM -5537.2°C -5537.2°C - Calm Calm 1.1 mph1.8 kmh -338605.1 mb 0.00 in0.0 mm 0.00 in0.0 mm 0.00 in0.0 mm
08:08 AM -5537.2°C -5537.2°C - Calm Calm -- -338605.1 mb 0.00 in0.0 mm 0.00 in0.0 mm 0.00 in0.0 mm
08:07 AM -5537.2°C -5537.2°C - Calm Calm -- -338605.1 mb 0.00 in0.0 mm 0.00 in0.0 mm 0.00 in0.0 mm
08:06 AM -5537.2°C -5537.2°C - Calm Calm -- -338605.1 mb 0.00 in0.0 mm 0.00 in0.0 mm 0.00 in0.0 mm
08:05 AM -5537.2°C -5537.2°C - Calm Calm -- -338605.1 mb 0.00 in0.0 mm 0.00 in0.0 mm 0.00 in0.0 mm
08:04 AM -5537.2°C -5537.2°C - Calm Calm -- -338605.1 mb 0.00 in0.0 mm 0.00 in0.0 mm 0.00 in0.0 mm
08:03 AM -5537.2°C -5537.2°C - Calm Calm 0.9 mph1.4 kmh -338605.1 mb 0.00 in0.0 mm 0.00 in0.0 mm 0.00 in0.0 mm
08:02 AM -5537.2°C -5537.2°C - Calm Calm -- -338605.1 mb 0.00 in0.0 mm 0.00 in0.0 mm 0.00 in0.0 mm
08:01 AM -5537.2°C -5537.2°C - Calm Calm -- -338605.1 mb 0.00 in0.0 mm 0.00 in0.0 mm 0.00 in0.0 mm
08:00 AM -5537.2°C -5537.2°C - Calm Calm -- -338605.1 mb 0.00 in0.0 mm 0.00 in0.0 mm 0.00 in0.0 mm
07:59 AM -5537.2°C -5537.2°C - Calm Calm -- -338605.1 mb 0.00 in0.0 mm 0.00 in0.0 mm 0.00 in0.0 mm
07:58 AM -5537.2°C -5537.2°C - Calm Calm -- -338605.1 mb 0.00 in0.0 mm 0.00 in0.0 mm 0.00 in0.0 mm
07:57 AM -5537.2°C -5537.2°C - Calm Calm 0.9 mph1.4 kmh -338605.1 mb 0.00 in0.0 mm 0.00 in0.0 mm 0.00 in0.0 mm
07:56 AM -5537.2°C -5537.2°C - Calm Calm 1.1 mph1.8 kmh -338605.1 mb 0.00 in0.0 mm 0.00 in0.0 mm 0.00 in0.0 mm
07:55 AM -5537.2°C -5537.2°C - Calm Calm 0.9 mph1.4 kmh -338605.1 mb 0.00 in0.0 mm 0.00 in0.0 mm 0.00 in0.0 mm
07:54 AM -5537.2°C -5537.2°C - Calm Calm -- -338605.1 mb 0.00 in0.0 mm 0.00 in0.0 mm 0.00 in0.0 mm
07:53 AM -5537.2°C -5537.2°C - Calm Calm 1.1 mph1.8 kmh -338605.1 mb 0.00 in0.0 mm 0.00 in0.0 mm 0.00 in0.0 mm
07:52 AM -5537.2°C -5537.2°C - Calm Calm 0.9 mph1.4 kmh -338605.1 mb 0.00 in0.0 mm 0.00 in0.0 mm 0.00 in0.0 mm
07:51 AM -5537.2°C -5537.2°C - Calm Calm -- -338605.1 mb 0.00 in0.0 mm 0.00 in0.0 mm 0.00 in0.0 mm
07:50 AM -5537.2°C -5537.2°C - Calm Calm 0.9 mph1.4 kmh -338605.1 mb 0.00 in0.0 mm 0.00 in0.0 mm 0.00 in0.0 mm
07:49 AM -5537.2°C -5537.2°C - Calm Calm 0.9 mph1.4 kmh -338605.1 mb 0.00 in0.0 mm 0.00 in0.0 mm 0.00 in0.0 mm
07:48 AM -5537.2°C -5537.2°C - Calm Calm -- -338605.1 mb 0.00 in0.0 mm 0.00 in0.0 mm 0.00 in0.0 mm
07:47 AM -5537.2°C -5537.2°C - Calm Calm 0.9 mph1.4 kmh -338605.1 mb 0.00 in0.0 mm 0.00 in0.0 mm 0.00 in0.0 mm
07:46 AM -5537.2°C -5537.2°C - Calm Calm -- -338605.1 mb 0.00 in0.0 mm 0.00 in0.0 mm 0.00 in0.0 mm
07:45 AM -5537.2°C -5537.2°C - Calm Calm -- -338605.1 mb 0.00 in0.0 mm 0.00 in0.0 mm 0.00 in0.0 mm
07:44 AM -5537.2°C -5537.2°C - Calm Calm -- -338605.1 mb 0.00 in0.0 mm 0.00 in0.0 mm 0.00 in0.0 mm
07:43 AM -5537.2°C -5537.2°C - Calm Calm -- -338605.1 mb 0.00 in0.0 mm 0.00 in0.0 mm 0.00 in0.0 mm
07:42 AM -5537.2°C -5537.2°C - Calm Calm -- -338605.1 mb 0.00 in0.0 mm 0.00 in0.0 mm 0.00 in0.0 mm
07:41 AM -5537.2°C -5537.2°C - Calm Calm -- -338605.1 mb 0.00 in0.0 mm 0.00 in0.0 mm 0.00 in0.0 mm
07:40 AM -5537.2°C -5537.2°C - Calm Calm -- -338605.1 mb 0.00 in0.0 mm 0.00 in0.0 mm 0.00 in0.0 mm
07:39 AM -5537.2°C -5537.2°C - Calm Calm -- -338605.1 mb 0.00 in0.0 mm 0.00 in0.0 mm 0.00 in0.0 mm
07:38 AM -5537.2°C -5537.2°C - Calm Calm 0.9 mph1.4 kmh -338605.1 mb 0.00 in0.0 mm 0.00 in0.0 mm 0.00 in0.0 mm
07:37 AM -5537.2°C -5537.2°C - Calm Calm 0.9 mph1.4 kmh -338605.1 mb 0.00 in0.0 mm 0.00 in0.0 mm 0.00 in0.0 mm
07:36 AM -5537.2°C -5537.2°C - Calm Calm 0.9 mph1.4 kmh -338605.1 mb 0.00 in0.0 mm 0.00 in0.0 mm 0.00 in0.0 mm
07:35 AM -5537.2°C -5537.2°C - Calm Calm -- -338605.1 mb 0.00 in0.0 mm 0.00 in0.0 mm 0.00 in0.0 mm
07:34 AM -5537.2°C -5537.2°C - Calm Calm -- -338605.1 mb 0.00 in0.0 mm 0.00 in0.0 mm 0.00 in0.0 mm
07:33 AM -5537.2°C -5537.2°C - Calm Calm -- -338605.1 mb 0.00 in0.0 mm 0.00 in0.0 mm 0.00 in0.0 mm
07:32 AM -5537.2°C -5537.2°C - Calm Calm 0.9 mph1.4 kmh -338605.1 mb 0.00 in0.0 mm 0.00 in0.0 mm 0.00 in0.0 mm
07:31 AM -5537.2°C -5537.2°C - Calm Calm -- -338605.1 mb 0.00 in0.0 mm 0.00 in0.0 mm 0.00 in0.0 mm
07:30 AM -5537.2°C -5537.2°C - Calm Calm -- -338605.1 mb 0.00 in0.0 mm 0.00 in0.0 mm 0.00 in0.0 mm
07:29 AM -5537.2°C -5537.2°C - Calm Calm -- -338605.1 mb 0.00 in0.0 mm 0.00 in0.0 mm 0.00 in0.0 mm
07:28 AM -5537.2°C -5537.2°C - Calm Calm -- -338605.1 mb 0.00 in0.0 mm 0.00 in0.0 mm 0.00 in0.0 mm
07:27 AM -5537.2°C -5537.2°C - Calm Calm -- -338605.1 mb 0.00 in0.0 mm 0.00 in0.0 mm 0.00 in0.0 mm
07:26 AM -5537.2°C -5537.2°C - Calm Calm 0.9 mph1.4 kmh -338605.1 mb 0.00 in0.0 mm 0.00 in0.0 mm 0.00 in0.0 mm
07:25 AM -5537.2°C -5537.2°C - Calm Calm -- -338605.1 mb 0.00 in0.0 mm 0.00 in0.0 mm 0.00 in0.0 mm
07:24 AM -5537.2°C -5537.2°C - Calm Calm -- -338605.1 mb 0.00 in0.0 mm 0.00 in0.0 mm 0.00 in0.0 mm
07:23 AM -5537.2°C -5537.2°C - Calm Calm -- -338605.1 mb 0.00 in0.0 mm 0.00 in0.0 mm 0.00 in0.0 mm
07:22 AM -5537.2°C -5537.2°C - Calm Calm -- -338605.1 mb 0.00 in0.0 mm 0.00 in0.0 mm 0.00 in0.0 mm
07:21 AM -5537.2°C -5537.2°C - Calm Calm -- -338605.1 mb 0.00 in0.0 mm 0.00 in0.0 mm 0.00 in0.0 mm
07:20 AM -5537.2°C -5537.2°C - Calm Calm 1.3 mph2.1 kmh -338605.1 mb 0.00 in0.0 mm 0.00 in0.0 mm 0.00 in0.0 mm
07:19 AM -5537.2°C -5537.2°C - Calm Calm -- -338605.1 mb 0.00 in0.0 mm 0.00 in0.0 mm 0.00 in0.0 mm
07:18 AM -5537.2°C -5537.2°C - Calm Calm -- -338605.1 mb 0.00 in0.0 mm 0.00 in0.0 mm 0.00 in0.0 mm
07:17 AM -5537.2°C -5537.2°C - Calm Calm -- -338605.1 mb 0.00 in0.0 mm 0.00 in0.0 mm 0.00 in0.0 mm
07:16 AM -5537.2°C -5537.2°C - Calm Calm -- -338605.1 mb 0.00 in0.0 mm 0.00 in0.0 mm 0.00 in0.0 mm
07:15 AM -5537.2°C -5537.2°C - Calm Calm 0.9 mph1.4 kmh -338605.1 mb 0.00 in0.0 mm 0.00 in0.0 mm 0.00 in0.0 mm
07:14 AM -5537.2°C -5537.2°C - Calm Calm -- -338605.1 mb 0.00 in0.0 mm 0.00 in0.0 mm 0.00 in0.0 mm
07:13 AM -5537.2°C -5537.2°C - Calm Calm -- -338605.1 mb 0.00 in0.0 mm 0.00 in0.0 mm 0.00 in0.0 mm
07:12 AM -5537.2°C -5537.2°C - Calm Calm -- -338605.1 mb 0.00 in0.0 mm 0.00 in0.0 mm 0.00 in0.0 mm
07:11 AM -5537.2°C -5537.2°C - Calm Calm -- -338605.1 mb 0.00 in0.0 mm 0.00 in0.0 mm 0.00 in0.0 mm
07:10 AM -5537.2°C -5537.2°C - Calm Calm -- -338605.1 mb 0.00 in0.0 mm 0.00 in0.0 mm 0.00 in0.0 mm
07:09 AM -5537.2°C -5537.2°C - Calm Calm -- -338605.1 mb 0.00 in0.0 mm 0.00 in0.0 mm 0.00 in0.0 mm
07:08 AM -5537.2°C -5537.2°C - Calm Calm -- -338605.1 mb 0.00 in0.0 mm 0.00 in0.0 mm 0.00 in0.0 mm
07:07 AM -5537.2°C -5537.2°C - Calm Calm -- -338605.1 mb 0.00 in0.0 mm 0.00 in0.0 mm 0.00 in0.0 mm
07:06 AM -5537.2°C -5537.2°C - Calm Calm -- -338605.1 mb 0.00 in0.0 mm 0.00 in0.0 mm 0.00 in0.0 mm
07:05 AM -5537.2°C -5537.2°C - Calm Calm -- -338605.1 mb 0.00 in0.0 mm 0.00 in0.0 mm 0.00 in0.0 mm
07:04 AM -5537.2°C -5537.2°C - Calm Calm 0.9 mph1.4 kmh -338605.1 mb 0.00 in0.0 mm 0.00 in0.0 mm 0.00 in0.0 mm
07:03 AM -5537.2°C -5537.2°C - Calm Calm -- -338605.1 mb 0.00 in0.0 mm 0.00 in0.0 mm 0.00 in0.0 mm
07:02 AM -5537.2°C -5537.2°C - Calm Calm 0.9 mph1.4 kmh -338605.1 mb 0.00 in0.0 mm 0.00 in0.0 mm 0.00 in0.0 mm
07:01 AM -5537.2°C -5537.2°C - Calm Calm -- -338605.1 mb 0.00 in0.0 mm 0.00 in0.0 mm 0.00 in0.0 mm
07:00 AM -5537.2°C -5537.2°C - Calm Calm -- -338605.1 mb 0.00 in0.0 mm 0.00 in0.0 mm 0.00 in0.0 mm
06:59 AM -5537.2°C -5537.2°C - Calm Calm -- -338605.1 mb 0.00 in0.0 mm 0.00 in0.0 mm 0.00 in0.0 mm
06:58 AM -5537.2°C -5537.2°C - Calm Calm -- -338605.1 mb 0.00 in0.0 mm 0.00 in0.0 mm 0.00 in0.0 mm
06:57 AM -5537.2°C -5537.2°C - Calm Calm -- -338605.1 mb 0.00 in0.0 mm 0.00 in0.0 mm 0.00 in0.0 mm
06:56 AM -5537.2°C -5537.2°C - Calm Calm -- -338605.1 mb 0.00 in0.0 mm 0.00 in0.0 mm 0.00 in0.0 mm
06:55 AM -5537.2°C -5537.2°C - Calm Calm -- -338605.1 mb 0.00 in0.0 mm 0.00 in0.0 mm 0.00 in0.0 mm
06:54 AM -5537.2°C -5537.2°C - Calm Calm 0.9 mph1.4 kmh -338605.1 mb 0.00 in0.0 mm 0.00 in0.0 mm 0.00 in0.0 mm
06:53 AM -5537.2°C -5537.2°C - Calm Calm -- -338605.1 mb 0.00 in0.0 mm 0.00 in0.0 mm 0.00 in0.0 mm
06:52 AM -5537.2°C -5537.2°C - Calm Calm 0.9 mph1.4 kmh -338605.1 mb 0.00 in0.0 mm 0.00 in0.0 mm 0.00 in0.0 mm
06:51 AM -5537.2°C -5537.2°C - Calm Calm -- -338605.1 mb 0.00 in0.0 mm 0.00 in0.0 mm 0.00 in0.0 mm
06:50 AM -5537.2°C -5537.2°C - Calm Calm -- -338605.1 mb 0.00 in0.0 mm 0.00 in0.0 mm 0.00 in0.0 mm
06:49 AM -5537.2°C -5537.2°C - Calm Calm -- -338605.1 mb 0.00 in0.0 mm 0.00 in0.0 mm 0.00 in0.0 mm
06:48 AM -5537.2°C -5537.2°C - Calm Calm -- -338605.1 mb 0.00 in0.0 mm 0.00 in0.0 mm 0.00 in0.0 mm
06:47 AM -5537.2°C -5537.2°C - Calm Calm -- -338605.1 mb 0.00 in0.0 mm 0.00 in0.0 mm 0.00 in0.0 mm
06:46 AM -5537.2°C -5537.2°C - Calm Calm -- -338605.1 mb 0.00 in0.0 mm 0.00 in0.0 mm 0.00 in0.0 mm
06:45 AM -5537.2°C -5537.2°C - Calm Calm -- -338605.1 mb 0.00 in0.0 mm 0.00 in0.0 mm 0.00 in0.0 mm
06:44 AM -5537.2°C -5537.2°C - Calm Calm -- -338605.1 mb 0.00 in0.0 mm 0.00 in0.0 mm 0.00 in0.0 mm
06:43 AM -5537.2°C -5537.2°C - Calm Calm -- -338605.1 mb 0.00 in0.0 mm 0.00 in0.0 mm 0.00 in0.0 mm
06:42 AM -5537.2°C -5537.2°C - Calm Calm -- -338605.1 mb 0.00 in0.0 mm 0.00 in0.0 mm 0.00 in0.0 mm
06:41 AM -5537.2°C -5537.2°C - Calm Calm -- -338605.1 mb 0.00 in0.0 mm 0.00 in0.0 mm 0.00 in0.0 mm
06:40 AM -5537.2°C -5537.2°C - Calm Calm -- -338605.1 mb 0.00 in0.0 mm 0.00 in0.0 mm 0.00 in0.0 mm
06:39 AM -5537.2°C -5537.2°C - Calm Calm -- -338605.1 mb 0.00 in0.0 mm 0.00 in0.0 mm 0.00 in0.0 mm
06:38 AM -5537.2°C -5537.2°C - Calm Calm -- -338605.1 mb 0.00 in0.0 mm 0.00 in0.0 mm 0.00 in0.0 mm
06:37 AM -5537.2°C -5537.2°C - Calm Calm -- -338605.1 mb 0.00 in0.0 mm 0.00 in0.0 mm 0.00 in0.0 mm
06:36 AM -5537.2°C -5537.2°C - Calm Calm -- -338605.1 mb 0.00 in0.0 mm 0.00 in0.0 mm 0.00 in0.0 mm
06:35 AM -5537.2°C -5537.2°C - Calm Calm -- -338605.1 mb 0.00 in0.0 mm 0.00 in0.0 mm 0.00 in0.0 mm
06:34 AM -5537.2°C -5537.2°C - Calm Calm -- -338605.1 mb 0.00 in0.0 mm 0.00 in0.0 mm 0.00 in0.0 mm
06:33 AM -5537.2°C -5537.2°C - Calm Calm -- -338605.1 mb 0.00 in0.0 mm 0.00 in0.0 mm 0.00 in0.0 mm
06:32 AM -5537.2°C -5537.2°C - Calm Calm -- -338605.1 mb 0.00 in0.0 mm 0.00 in0.0 mm 0.00 in0.0 mm
06:31 AM -5537.2°C -5537.2°C - Calm Calm -- -338605.1 mb 0.00 in0.0 mm 0.00 in0.0 mm 0.00 in0.0 mm
06:30 AM -5537.2°C -5537.2°C - Calm Calm -- -338605.1 mb 0.00 in0.0 mm 0.00 in0.0 mm 0.00 in0.0 mm
06:29 AM -5537.2°C -5537.2°C - Calm Calm -- -338605.1 mb 0.00 in0.0 mm 0.00 in0.0 mm 0.00 in0.0 mm
06:28 AM -5537.2°C -5537.2°C - Calm Calm -- -338605.1 mb 0.00 in0.0 mm 0.00 in0.0 mm 0.00 in0.0 mm
06:27 AM -5537.2°C -5537.2°C - Calm Calm -- -338605.1 mb 0.00 in0.0 mm 0.00 in0.0 mm 0.00 in0.0 mm
06:26 AM -5537.2°C -5537.2°C - Calm Calm -- -338605.1 mb 0.00 in0.0 mm 0.00 in0.0 mm 0.00 in0.0 mm
06:25 AM -5537.2°C -5537.2°C - Calm Calm -- -338605.1 mb 0.00 in0.0 mm 0.00 in0.0 mm 0.00 in0.0 mm
06:24 AM -5537.2°C -5537.2°C - Calm Calm -- -338605.1 mb 0.00 in0.0 mm 0.00 in0.0 mm 0.00 in0.0 mm
06:23 AM -5537.2°C -5537.2°C - Calm Calm -- -338605.1 mb 0.00 in0.0 mm 0.00 in0.0 mm 0.00 in0.0 mm
06:22 AM -5537.2°C -5537.2°C - Calm Calm -- -338605.1 mb 0.00 in0.0 mm 0.00 in0.0 mm 0.00 in0.0 mm
06:21 AM -5537.2°C -5537.2°C - Calm Calm -- -338605.1 mb 0.00 in0.0 mm 0.00 in0.0 mm 0.00 in0.0 mm
06:20 AM -5537.2°C -5537.2°C - Calm Calm -- -338605.1 mb 0.00 in0.0 mm 0.00 in0.0 mm 0.00 in0.0 mm
06:19 AM -5537.2°C -5537.2°C - Calm Calm -- -338605.1 mb 0.00 in0.0 mm 0.00 in0.0 mm 0.00 in0.0 mm
06:18 AM -5537.2°C -5537.2°C - Calm Calm -- -338605.1 mb 0.00 in0.0 mm 0.00 in0.0 mm 0.00 in0.0 mm
06:17 AM -5537.2°C -5537.2°C - Calm Calm -- -338605.1 mb 0.00 in0.0 mm 0.00 in0.0 mm 0.00 in0.0 mm
06:16 AM -5537.2°C -5537.2°C - Calm Calm -- -338605.1 mb 0.00 in0.0 mm 0.00 in0.0 mm 0.00 in0.0 mm
06:15 AM -5537.2°C -5537.2°C - Calm Calm -- -338605.1 mb 0.00 in0.0 mm 0.00 in0.0 mm 0.00 in0.0 mm
06:14 AM -5537.2°C -5537.2°C - Calm Calm -- -338605.1 mb 0.00 in0.0 mm 0.00 in0.0 mm 0.00 in0.0 mm
06:13 AM -5537.2°C -5537.2°C - Calm Calm -- -338605.1 mb 0.00 in0.0 mm 0.00 in0.0 mm 0.00 in0.0 mm
06:12 AM -5537.2°C -5537.2°C - Calm Calm -- -338605.1 mb 0.00 in0.0 mm 0.00 in0.0 mm 0.00 in0.0 mm
06:11 AM -5537.2°C -5537.2°C - Calm Calm -- -338605.1 mb 0.00 in0.0 mm 0.00 in0.0 mm 0.00 in0.0 mm
06:10 AM -5537.2°C -5537.2°C - Calm Calm -- -338605.1 mb 0.00 in0.0 mm 0.00 in0.0 mm 0.00 in0.0 mm
06:09 AM -5537.2°C -5537.2°C - Calm Calm -- -338605.1 mb 0.00 in0.0 mm 0.00 in0.0 mm 0.00 in0.0 mm
06:08 AM -5537.2°C -5537.2°C - Calm Calm -- -338605.1 mb 0.00 in0.0 mm 0.00 in0.0 mm 0.00 in0.0 mm
06:07 AM -5537.2°C -5537.2°C - Calm Calm -- -338605.1 mb 0.00 in0.0 mm 0.00 in0.0 mm 0.00 in0.0 mm
06:06 AM -5537.2°C -5537.2°C - Calm Calm 0.9 mph1.4 kmh -338605.1 mb 0.00 in0.0 mm 0.00 in0.0 mm 0.00 in0.0 mm
06:05 AM -5537.2°C -5537.2°C - Calm Calm -- -338605.1 mb 0.00 in0.0 mm 0.00 in0.0 mm 0.00 in0.0 mm
06:04 AM -5537.2°C -5537.2°C - Calm Calm -- -338605.1 mb 0.00 in0.0 mm 0.00 in0.0 mm 0.00 in0.0 mm
06:03 AM -5537.2°C -5537.2°C - Calm Calm -- -338605.1 mb 0.00 in0.0 mm 0.00 in0.0 mm 0.00 in0.0 mm
06:02 AM -5537.2°C -5537.2°C - Calm Calm -- -338605.1 mb 0.00 in0.0 mm 0.00 in0.0 mm 0.00 in0.0 mm
06:01 AM -5537.2°C -5537.2°C - Calm Calm -- -338605.1 mb 0.00 in0.0 mm 0.00 in0.0 mm 0.00 in0.0 mm
06:00 AM -5537.2°C -5537.2°C - Calm Calm -- -338605.1 mb 0.00 in0.0 mm 0.00 in0.0 mm 0.00 in0.0 mm
05:59 AM -5537.2°C -5537.2°C - Calm Calm 0.9 mph1.4 kmh -338605.1 mb 0.00 in0.0 mm 0.00 in0.0 mm 0.00 in0.0 mm
05:58 AM -5537.2°C -5537.2°C - Calm Calm -- -338605.1 mb 0.00 in0.0 mm 0.00 in0.0 mm 0.00 in0.0 mm
05:57 AM -5537.2°C -5537.2°C - Calm Calm -- -338605.1 mb 0.00 in0.0 mm 0.00 in0.0 mm 0.00 in0.0 mm
05:56 AM -5537.2°C -5537.2°C - Calm Calm -- -338605.1 mb 0.00 in0.0 mm 0.00 in0.0 mm 0.00 in0.0 mm
05:55 AM -5537.2°C -5537.2°C - Calm Calm -- -338605.1 mb 0.00 in0.0 mm 0.00 in0.0 mm 0.00 in0.0 mm
05:54 AM -5537.2°C -5537.2°C - Calm Calm -- -338605.1 mb 0.00 in0.0 mm 0.00 in0.0 mm 0.00 in0.0 mm
05:53 AM -5537.2°C -5537.2°C - Calm Calm -- -338605.1 mb 0.00 in0.0 mm 0.00 in0.0 mm 0.00 in0.0 mm
05:52 AM -5537.2°C -5537.2°C - Calm Calm -- -338605.1 mb 0.00 in0.0 mm 0.00 in0.0 mm 0.00 in0.0 mm
05:51 AM -5537.2°C -5537.2°C - Calm Calm -- -338605.1 mb 0.00 in0.0 mm 0.00 in0.0 mm 0.00 in0.0 mm
05:50 AM -5537.2°C -5537.2°C - Calm Calm -- -338605.1 mb 0.00 in0.0 mm 0.00 in0.0 mm 0.00 in0.0 mm
05:49 AM -5537.2°C -5537.2°C - Calm Calm -- -338605.1 mb 0.00 in0.0 mm 0.00 in0.0 mm 0.00 in0.0 mm
05:48 AM -5537.2°C -5537.2°C - Calm Calm -- -338605.1 mb 0.00 in0.0 mm 0.00 in0.0 mm 0.00 in0.0 mm
05:47 AM -5537.2°C -5537.2°C - Calm Calm -- -338605.1 mb 0.00 in0.0 mm 0.00 in0.0 mm 0.00 in0.0 mm
05:46 AM -5537.2°C -5537.2°C - Calm Calm -- -338605.1 mb 0.00 in0.0 mm 0.00 in0.0 mm 0.00 in0.0 mm
05:45 AM -5537.2°C -5537.2°C - Calm Calm -- -338605.1 mb 0.00 in0.0 mm 0.00 in0.0 mm 0.00 in0.0 mm
05:44 AM -5537.2°C -5537.2°C - Calm Calm -- -338605.1 mb 0.00 in0.0 mm 0.00 in0.0 mm 0.00 in0.0 mm
05:43 AM -5537.2°C -5537.2°C - Calm Calm -- -338605.1 mb 0.00 in0.0 mm 0.00 in0.0 mm 0.00 in0.0 mm
05:42 AM -5537.2°C -5537.2°C - Calm Calm -- -338605.1 mb 0.00 in0.0 mm 0.00 in0.0 mm 0.00 in0.0 mm
05:41 AM -5537.2°C -5537.2°C - Calm Calm -- -338605.1 mb 0.00 in0.0 mm 0.00 in0.0 mm 0.00 in0.0 mm
05:40 AM -5537.2°C -5537.2°C - Calm Calm -- -338605.1 mb 0.00 in0.0 mm 0.00 in0.0 mm 0.00 in0.0 mm
05:39 AM -5537.2°C -5537.2°C - Calm Calm -- -338605.1 mb 0.00 in0.0 mm 0.00 in0.0 mm 0.00 in0.0 mm
05:38 AM -5537.2°C -5537.2°C - Calm Calm -- -338605.1 mb 0.00 in0.0 mm 0.00 in0.0 mm 0.00 in0.0 mm
05:37 AM -5537.2°C -5537.2°C - Calm Calm -- -338605.1 mb 0.00 in0.0 mm 0.00 in0.0 mm 0.00 in0.0 mm
05:36 AM -5537.2°C -5537.2°C - Calm Calm -- -338605.1 mb 0.00 in0.0 mm 0.00 in0.0 mm 0.00 in0.0 mm
05:35 AM -5537.2°C -5537.2°C - Calm Calm -- -338605.1 mb 0.00 in0.0 mm 0.00 in0.0 mm 0.00 in0.0 mm
05:34 AM -5537.2°C -5537.2°C - Calm Calm -- -338605.1 mb 0.00 in0.0 mm 0.00 in0.0 mm 0.00 in0.0 mm
05:33 AM -5537.2°C -5537.2°C - Calm Calm 1.1 mph1.8 kmh -338605.1 mb 0.00 in0.0 mm 0.00 in0.0 mm 0.00 in0.0 mm
05:32 AM -5537.2°C -5537.2°C - Calm Calm -- -338605.1 mb 0.00 in0.0 mm 0.00 in0.0 mm 0.00 in0.0 mm
05:31 AM -5537.2°C -5537.2°C - Calm Calm -- -338605.1 mb 0.00 in0.0 mm 0.00 in0.0 mm 0.00 in0.0 mm
05:30 AM -5537.2°C -5537.2°C - Calm Calm -- -338605.1 mb 0.00 in0.0 mm 0.00 in0.0 mm 0.00 in0.0 mm
05:29 AM -5537.2°C -5537.2°C - Calm Calm -- -338605.1 mb 0.00 in0.0 mm 0.00 in0.0 mm 0.00 in0.0 mm
05:28 AM -5537.2°C -5537.2°C - Calm Calm -- -338605.1 mb 0.00 in0.0 mm 0.00 in0.0 mm 0.00 in0.0 mm
05:27 AM -5537.2°C -5537.2°C - Calm Calm 0.9 mph1.4 kmh -338605.1 mb 0.00 in0.0 mm 0.00 in0.0 mm 0.00 in0.0 mm
05:26 AM -5537.2°C -5537.2°C - Calm Calm -- -338605.1 mb 0.00 in0.0 mm 0.00 in0.0 mm 0.00 in0.0 mm
05:25 AM -5537.2°C -5537.2°C - Calm Calm 0.9 mph1.4 kmh -338605.1 mb 0.00 in0.0 mm 0.00 in0.0 mm 0.00 in0.0 mm
05:24 AM -5537.2°C -5537.2°C - Calm Calm 0.9 mph1.4 kmh -338605.1 mb 0.00 in0.0 mm 0.00 in0.0 mm 0.00 in0.0 mm
05:23 AM -5537.2°C -5537.2°C - Calm Calm -- -338605.1 mb 0.00 in0.0 mm 0.00 in0.0 mm 0.00 in0.0 mm
05:22 AM -5537.2°C -5537.2°C - Calm Calm 0.9 mph1.4 kmh -338605.1 mb 0.00 in0.0 mm 0.00 in0.0 mm 0.00 in0.0 mm
05:21 AM -5537.2°C -5537.2°C - Calm Calm -- -338605.1 mb 0.00 in0.0 mm 0.00 in0.0 mm 0.00 in0.0 mm
05:20 AM -5537.2°C -5537.2°C - Calm Calm -- -338605.1 mb 0.00 in0.0 mm 0.00 in0.0 mm 0.00 in0.0 mm
05:19 AM -5537.2°C -5537.2°C - Calm Calm -- -338605.1 mb 0.00 in0.0 mm 0.00 in0.0 mm 0.00 in0.0 mm
05:18 AM -5537.2°C -5537.2°C - Calm Calm -- -338605.1 mb 0.00 in0.0 mm 0.00 in0.0 mm 0.00 in0.0 mm
05:17 AM -5537.2°C -5537.2°C - Calm Calm -- -338605.1 mb 0.00 in0.0 mm 0.00 in0.0 mm 0.00 in0.0 mm
05:16 AM -5537.2°C -5537.2°C - Calm Calm -- -338605.1 mb 0.00 in0.0 mm 0.00 in0.0 mm 0.00 in0.0 mm
05:15 AM -5537.2°C -5537.2°C - Calm Calm -- -338605.1 mb 0.00 in0.0 mm 0.00 in0.0 mm 0.00 in0.0 mm
05:14 AM -5537.2°C -5537.2°C - Calm Calm -- -338605.1 mb 0.00 in0.0 mm 0.00 in0.0 mm 0.00 in0.0 mm
05:13 AM -5537.2°C -5537.2°C - Calm Calm 0.9 mph1.4 kmh -338605.1 mb 0.00 in0.0 mm 0.00 in0.0 mm 0.00 in0.0 mm
05:12 AM -5537.2°C -5537.2°C - Calm Calm -- -338605.1 mb 0.00 in0.0 mm 0.00 in0.0 mm 0.00 in0.0 mm
05:11 AM -5537.2°C -5537.2°C - Calm Calm -- -338605.1 mb 0.00 in0.0 mm 0.00 in0.0 mm 0.00 in0.0 mm
05:10 AM -5537.2°C -5537.2°C - Calm Calm -- -338605.1 mb 0.00 in0.0 mm 0.00 in0.0 mm 0.00 in0.0 mm
05:09 AM -5537.2°C -5537.2°C - Calm Calm -- -338605.1 mb 0.00 in0.0 mm 0.00 in0.0 mm 0.00 in0.0 mm
05:08 AM -5537.2°C -5537.2°C - Calm Calm -- -338605.1 mb 0.00 in0.0 mm 0.00 in0.0 mm 0.00 in0.0 mm
05:07 AM -5537.2°C -5537.2°C - Calm Calm -- -338605.1 mb 0.00 in0.0 mm 0.00 in0.0 mm 0.00 in0.0 mm
05:06 AM -5537.2°C -5537.2°C - Calm Calm -- -338605.1 mb 0.00 in0.0 mm 0.00 in0.0 mm 0.00 in0.0 mm
05:05 AM -5537.2°C -5537.2°C - Calm Calm -- -338605.1 mb 0.00 in0.0 mm 0.00 in0.0 mm 0.00 in0.0 mm
05:04 AM -5537.2°C -5537.2°C - Calm Calm -- -338605.1 mb 0.00 in0.0 mm 0.00 in0.0 mm 0.00 in0.0 mm
05:03 AM -5537.2°C -5537.2°C - Calm Calm -- -338605.1 mb 0.00 in0.0 mm 0.00 in0.0 mm 0.00 in0.0 mm
05:02 AM -5537.2°C -5537.2°C - Calm Calm -- -338605.1 mb 0.00 in0.0 mm 0.00 in0.0 mm 0.00 in0.0 mm
05:01 AM -5537.2°C -5537.2°C - Calm Calm -- -338605.1 mb 0.00 in0.0 mm 0.00 in0.0 mm 0.00 in0.0 mm
05:00 AM -5537.2°C -5537.2°C - Calm Calm -- -338605.1 mb 0.00 in0.0 mm 0.00 in0.0 mm 0.00 in0.0 mm
04:59 AM -5537.2°C -5537.2°C - Calm Calm -- -338605.1 mb 0.00 in0.0 mm 0.00 in0.0 mm 0.00 in0.0 mm
04:58 AM -5537.2°C -5537.2°C - Calm Calm 0.9 mph1.4 kmh -338605.1 mb 0.00 in0.0 mm 0.00 in0.0 mm 0.00 in0.0 mm
04:57 AM -5537.2°C -5537.2°C - Calm Calm -- -338605.1 mb 0.00 in0.0 mm 0.00 in0.0 mm 0.00 in0.0 mm
04:56 AM -5537.2°C -5537.2°C - Calm Calm -- -338605.1 mb 0.00 in0.0 mm 0.00 in0.0 mm 0.00 in0.0 mm
04:55 AM -5537.2°C -5537.2°C - Calm Calm -- -338605.1 mb 0.00 in0.0 mm 0.00 in0.0 mm 0.00 in0.0 mm
04:54 AM -5537.2°C -5537.2°C - Calm Calm -- -338605.1 mb 0.00 in0.0 mm 0.00 in0.0 mm 0.00 in0.0 mm
04:53 AM -5537.2°C -5537.2°C - Calm Calm -- -338605.1 mb 0.00 in0.0 mm 0.00 in0.0 mm 0.00 in0.0 mm
04:52 AM -5537.2°C -5537.2°C - Calm Calm -- -338605.1 mb 0.00 in0.0 mm 0.00 in0.0 mm 0.00 in0.0 mm
04:51 AM -5537.2°C -5537.2°C - Calm Calm -- -338605.1 mb 0.00 in0.0 mm 0.00 in0.0 mm 0.00 in0.0 mm
04:50 AM -5537.2°C -5537.2°C - Calm Calm -- -338605.1 mb 0.00 in0.0 mm 0.00 in0.0 mm 0.00 in0.0 mm
04:49 AM -5537.2°C -5537.2°C - Calm Calm -- -338605.1 mb 0.00 in0.0 mm 0.00 in0.0 mm 0.00 in0.0 mm
04:48 AM -5537.2°C -5537.2°C - Calm Calm -- -338605.1 mb 0.00 in0.0 mm 0.00 in0.0 mm 0.00 in0.0 mm
04:47 AM -5537.2°C -5537.2°C - Calm Calm -- -338605.1 mb 0.00 in0.0 mm 0.00 in0.0 mm 0.00 in0.0 mm
04:46 AM -5537.2°C -5537.2°C - Calm Calm -- -338605.1 mb 0.00 in0.0 mm 0.00 in0.0 mm 0.00 in0.0 mm
04:45 AM -5537.2°C -5537.2°C - Calm Calm -- -338605.1 mb 0.00 in0.0 mm 0.00 in0.0 mm 0.00 in0.0 mm
04:44 AM -5537.2°C -5537.2°C - Calm Calm -- -338605.1 mb 0.00 in0.0 mm 0.00 in0.0 mm 0.00 in0.0 mm
04:43 AM -5537.2°C -5537.2°C - Calm Calm -- -338605.1 mb 0.00 in0.0 mm 0.00 in0.0 mm 0.00 in0.0 mm
04:42 AM -5537.2°C -5537.2°C - Calm Calm -- -338605.1 mb 0.00 in0.0 mm 0.00 in0.0 mm 0.00 in0.0 mm
04:41 AM -5537.2°C -5537.2°C - Calm Calm -- -338605.1 mb 0.00 in0.0 mm 0.00 in0.0 mm 0.00 in0.0 mm
04:40 AM -5537.2°C -5537.2°C - Calm Calm -- -338605.1 mb 0.00 in0.0 mm 0.00 in0.0 mm 0.00 in0.0 mm
04:39 AM -5537.2°C -5537.2°C - Calm Calm -- -338605.1 mb 0.00 in0.0 mm 0.00 in0.0 mm 0.00 in0.0 mm
04:38 AM -5537.2°C -5537.2°C - Calm Calm -- -338605.1 mb 0.00 in0.0 mm 0.00 in0.0 mm 0.00 in0.0 mm
04:37 AM -5537.2°C -5537.2°C - Calm Calm -- -338605.1 mb 0.00 in0.0 mm 0.00 in0.0 mm 0.00 in0.0 mm
04:36 AM -5537.2°C -5537.2°C - Calm Calm -- -338605.1 mb 0.00 in0.0 mm 0.00 in0.0 mm 0.00 in0.0 mm
04:35 AM -5537.2°C -5537.2°C - Calm Calm -- -338605.1 mb 0.00 in0.0 mm 0.00 in0.0 mm 0.00 in0.0 mm
04:34 AM -5537.2°C -5537.2°C - Calm Calm -- -338605.1 mb 0.00 in0.0 mm 0.00 in0.0 mm 0.00 in0.0 mm
04:33 AM -5537.2°C -5537.2°C - Calm Calm -- -338605.1 mb 0.00 in0.0 mm 0.00 in0.0 mm 0.00 in0.0 mm
04:32 AM -5537.2°C -5537.2°C - Calm Calm -- -338605.1 mb 0.00 in0.0 mm 0.00 in0.0 mm 0.00 in0.0 mm
04:31 AM -5537.2°C -5537.2°C - Calm Calm -- -338605.1 mb 0.00 in0.0 mm 0.00 in0.0 mm 0.00 in0.0 mm
04:30 AM -5537.2°C -5537.2°C - Calm Calm -- -338605.1 mb 0.00 in0.0 mm 0.00 in0.0 mm 0.00 in0.0 mm
04:29 AM -5537.2°C -5537.2°C - Calm Calm -- -338605.1 mb 0.00 in0.0 mm 0.00 in0.0 mm 0.00 in0.0 mm
04:28 AM -5537.2°C -5537.2°C - Calm Calm -- -338605.1 mb 0.00 in0.0 mm 0.00 in0.0 mm 0.00 in0.0 mm
04:27 AM -5537.2°C -5537.2°C - Calm Calm -- -338605.1 mb 0.00 in0.0 mm 0.00 in0.0 mm 0.00 in0.0 mm
04:26 AM -5537.2°C -5537.2°C - Calm Calm -- -338605.1 mb 0.00 in0.0 mm 0.00 in0.0 mm 0.00 in0.0 mm
04:25 AM -5537.2°C -5537.2°C - Calm Calm -- -338605.1 mb 0.00 in0.0 mm 0.00 in0.0 mm 0.00 in0.0 mm
04:24 AM -5537.2°C -5537.2°C - Calm Calm -- -338605.1 mb 0.00 in0.0 mm 0.00 in0.0 mm 0.00 in0.0 mm
04:23 AM -5537.2°C -5537.2°C - Calm Calm -- -338605.1 mb 0.00 in0.0 mm 0.00 in0.0 mm 0.00 in0.0 mm
04:22 AM -5537.2°C -5537.2°C - Calm Calm -- -338605.1 mb 0.00 in0.0 mm 0.00 in0.0 mm 0.00 in0.0 mm
04:21 AM -5537.2°C -5537.2°C - Calm Calm -- -338605.1 mb 0.00 in0.0 mm 0.00 in0.0 mm 0.00 in0.0 mm
04:20 AM -5537.2°C -5537.2°C - Calm Calm -- -338605.1 mb 0.00 in0.0 mm 0.00 in0.0 mm 0.00 in0.0 mm
04:19 AM -5537.2°C -5537.2°C - Calm Calm -- -338605.1 mb 0.00 in0.0 mm 0.00 in0.0 mm 0.00 in0.0 mm
04:18 AM -5537.2°C -5537.2°C - Calm Calm -- -338605.1 mb 0.00 in0.0 mm 0.00 in0.0 mm 0.00 in0.0 mm
04:17 AM -5537.2°C -5537.2°C - Calm Calm -- -338605.1 mb 0.00 in0.0 mm 0.00 in0.0 mm 0.00 in0.0 mm
04:16 AM -5537.2°C -5537.2°C - Calm Calm -- -338605.1 mb 0.00 in0.0 mm 0.00 in0.0 mm 0.00 in0.0 mm
04:15 AM -5537.2°C -5537.2°C - Calm Calm -- -338605.1 mb 0.00 in0.0 mm 0.00 in0.0 mm 0.00 in0.0 mm
04:14 AM -5537.2°C -5537.2°C - Calm Calm -- -338605.1 mb 0.00 in0.0 mm 0.00 in0.0 mm 0.00 in0.0 mm
04:13 AM -5537.2°C -5537.2°C - Calm Calm -- -338605.1 mb 0.00 in0.0 mm 0.00 in0.0 mm 0.00 in0.0 mm
04:12 AM -5537.2°C -5537.2°C - Calm Calm -- -338605.1 mb 0.00 in0.0 mm 0.00 in0.0 mm 0.00 in0.0 mm
04:11 AM -5537.2°C -5537.2°C - Calm Calm -- -338605.1 mb 0.00 in0.0 mm 0.00 in0.0 mm 0.00 in0.0 mm
04:10 AM -5537.2°C -5537.2°C - Calm Calm -- -338605.1 mb 0.00 in0.0 mm 0.00 in0.0 mm 0.00 in0.0 mm
04:09 AM -5537.2°C -5537.2°C - Calm Calm -- -338605.1 mb 0.00 in0.0 mm 0.00 in0.0 mm 0.00 in0.0 mm
04:08 AM -5537.2°C -5537.2°C - Calm Calm -- -338605.1 mb 0.00 in0.0 mm 0.00 in0.0 mm 0.00 in0.0 mm
04:07 AM -5537.2°C -5537.2°C - Calm Calm -- -338605.1 mb 0.00 in0.0 mm 0.00 in0.0 mm 0.00 in0.0 mm
04:06 AM -5537.2°C -5537.2°C - Calm Calm -- -338605.1 mb 0.00 in0.0 mm 0.00 in0.0 mm 0.00 in0.0 mm
04:05 AM -5537.2°C -5537.2°C - Calm Calm -- -338605.1 mb 0.00 in0.0 mm 0.00 in0.0 mm 0.00 in0.0 mm
04:04 AM -5537.2°C -5537.2°C - Calm Calm -- -338605.1 mb 0.00 in0.0 mm 0.00 in0.0 mm 0.00 in0.0 mm
04:03 AM -5537.2°C -5537.2°C - Calm Calm -- -338605.1 mb 0.00 in0.0 mm 0.00 in0.0 mm 0.00 in0.0 mm
04:02 AM -5537.2°C -5537.2°C - Calm Calm -- -338605.1 mb 0.00 in0.0 mm 0.00 in0.0 mm 0.00 in0.0 mm
04:01 AM -5537.2°C -5537.2°C - Calm Calm -- -338605.1 mb 0.00 in0.0 mm 0.00 in0.0 mm 0.00 in0.0 mm
04:00 AM -5537.2°C -5537.2°C - Calm Calm -- -338605.1 mb 0.00 in0.0 mm 0.00 in0.0 mm 0.00 in0.0 mm
03:59 AM -5537.2°C -5537.2°C - Calm Calm -- -338605.1 mb 0.00 in0.0 mm 0.00 in0.0 mm 0.00 in0.0 mm
03:58 AM -5537.2°C -5537.2°C - Calm Calm -- -338605.1 mb 0.00 in0.0 mm 0.00 in0.0 mm 0.00 in0.0 mm
03:57 AM -5537.2°C -5537.2°C - Calm Calm -- -338605.1 mb 0.00 in0.0 mm 0.00 in0.0 mm 0.00 in0.0 mm
03:56 AM -5537.2°C -5537.2°C - Calm Calm -- -338605.1 mb 0.00 in0.0 mm 0.00 in0.0 mm 0.00 in0.0 mm
03:55 AM -5537.2°C -5537.2°C - Calm Calm -- -338605.1 mb 0.00 in0.0 mm 0.00 in0.0 mm 0.00 in0.0 mm
03:54 AM -5537.2°C -5537.2°C - Calm Calm -- -338605.1 mb 0.00 in0.0 mm 0.00 in0.0 mm 0.00 in0.0 mm
03:53 AM -5537.2°C -5537.2°C - Calm Calm -- -338605.1 mb 0.00 in0.0 mm 0.00 in0.0 mm 0.00 in0.0 mm
03:52 AM -5537.2°C -5537.2°C - Calm Calm -- -338605.1 mb 0.00 in0.0 mm 0.00 in0.0 mm 0.00 in0.0 mm
03:51 AM -5537.2°C -5537.2°C - Calm Calm -- -338605.1 mb 0.00 in0.0 mm 0.00 in0.0 mm 0.00 in0.0 mm
03:50 AM -5537.2°C -5537.2°C - Calm Calm -- -338605.1 mb 0.00 in0.0 mm 0.00 in0.0 mm 0.00 in0.0 mm
03:49 AM -5537.2°C -5537.2°C - Calm Calm -- -338605.1 mb 0.00 in0.0 mm 0.00 in0.0 mm 0.00 in0.0 mm
03:48 AM -5537.2°C -5537.2°C - Calm Calm -- -338605.1 mb 0.00 in0.0 mm 0.00 in0.0 mm 0.00 in0.0 mm
03:47 AM -5537.2°C -5537.2°C - Calm Calm -- -338605.1 mb 0.00 in0.0 mm 0.00 in0.0 mm 0.00 in0.0 mm
03:46 AM -5537.2°C -5537.2°C - Calm Calm -- -338605.1 mb 0.00 in0.0 mm 0.00 in0.0 mm 0.00 in0.0 mm
03:45 AM -5537.2°C -5537.2°C - Calm Calm -- -338605.1 mb 0.00 in0.0 mm 0.00 in0.0 mm 0.00 in0.0 mm
03:44 AM -5537.2°C -5537.2°C - Calm Calm -- -338605.1 mb 0.00 in0.0 mm 0.00 in0.0 mm 0.00 in0.0 mm
03:43 AM -5537.2°C -5537.2°C - Calm Calm -- -338605.1 mb 0.00 in0.0 mm 0.00 in0.0 mm 0.00 in0.0 mm
03:42 AM -5537.2°C -5537.2°C - Calm Calm -- -338605.1 mb 0.00 in0.0 mm 0.00 in0.0 mm 0.00 in0.0 mm
03:41 AM -5537.2°C -5537.2°C - Calm Calm -- -338605.1 mb 0.00 in0.0 mm 0.00 in0.0 mm 0.00 in0.0 mm
03:40 AM -5537.2°C -5537.2°C - Calm Calm -- -338605.1 mb 0.00 in0.0 mm 0.00 in0.0 mm 0.00 in0.0 mm
03:39 AM -5537.2°C -5537.2°C - Calm Calm -- -338605.1 mb 0.00 in0.0 mm 0.00 in0.0 mm 0.00 in0.0 mm
03:38 AM -5537.2°C -5537.2°C - Calm Calm -- -338605.1 mb 0.00 in0.0 mm 0.00 in0.0 mm 0.00 in0.0 mm
03:37 AM -5537.2°C -5537.2°C - Calm Calm -- -338605.1 mb 0.00 in0.0 mm 0.00 in0.0 mm 0.00 in0.0 mm
03:36 AM -5537.2°C -5537.2°C - Calm Calm -- -338605.1 mb 0.00 in0.0 mm 0.00 in0.0 mm 0.00 in0.0 mm
03:35 AM -5537.2°C -5537.2°C - Calm Calm -- -338605.1 mb 0.00 in0.0 mm 0.00 in0.0 mm 0.00 in0.0 mm
03:34 AM -5537.2°C -5537.2°C - Calm Calm -- -338605.1 mb 0.00 in0.0 mm 0.00 in0.0 mm 0.00 in0.0 mm
03:33 AM -5537.2°C -5537.2°C - Calm Calm -- -338605.1 mb 0.00 in0.0 mm 0.00 in0.0 mm 0.00 in0.0 mm
03:32 AM -5537.2°C -5537.2°C - Calm Calm -- -338605.1 mb 0.00 in0.0 mm 0.00 in0.0 mm 0.00 in0.0 mm
03:31 AM -5537.2°C -5537.2°C - Calm Calm -- -338605.1 mb 0.00 in0.0 mm 0.00 in0.0 mm 0.00 in0.0 mm
03:30 AM -5537.2°C -5537.2°C - Calm Calm -- -338605.1 mb 0.00 in0.0 mm 0.00 in0.0 mm 0.00 in0.0 mm
03:29 AM -5537.2°C -5537.2°C - Calm Calm -- -338605.1 mb 0.00 in0.0 mm 0.00 in0.0 mm 0.00 in0.0 mm
03:28 AM -5537.2°C -5537.2°C - Calm Calm -- -338605.1 mb 0.00 in0.0 mm 0.00 in0.0 mm 0.00 in0.0 mm
03:27 AM -5537.2°C -5537.2°C - Calm Calm -- -338605.1 mb 0.00 in0.0 mm 0.00 in0.0 mm 0.00 in0.0 mm
03:26 AM -5537.2°C -5537.2°C - Calm Calm -- -338605.1 mb 0.00 in0.0 mm 0.00 in0.0 mm 0.00 in0.0 mm
03:25 AM -5537.2°C -5537.2°C - Calm Calm -- -338605.1 mb 0.00 in0.0 mm 0.00 in0.0 mm 0.00 in0.0 mm
03:24 AM -5537.2°C -5537.2°C - Calm Calm -- -338605.1 mb 0.00 in0.0 mm 0.00 in0.0 mm 0.00 in0.0 mm
03:23 AM -5537.2°C -5537.2°C - Calm Calm -- -338605.1 mb 0.00 in0.0 mm 0.00 in0.0 mm 0.00 in0.0 mm
03:22 AM -5537.2°C -5537.2°C - Calm Calm -- -338605.1 mb 0.00 in0.0 mm 0.00 in0.0 mm 0.00 in0.0 mm
03:21 AM -5537.2°C -5537.2°C - Calm Calm -- -338605.1 mb 0.00 in0.0 mm 0.00 in0.0 mm 0.00 in0.0 mm
03:20 AM -5537.2°C -5537.2°C - Calm Calm -- -338605.1 mb 0.00 in0.0 mm 0.00 in0.0 mm 0.00 in0.0 mm
03:19 AM -5537.2°C -5537.2°C - Calm Calm -- -338605.1 mb 0.00 in0.0 mm 0.00 in0.0 mm 0.00 in0.0 mm
03:18 AM -5537.2°C -5537.2°C - Calm Calm -- -338605.1 mb 0.00 in0.0 mm 0.00 in0.0 mm 0.00 in0.0 mm
03:17 AM -5537.2°C -5537.2°C - Calm Calm -- -338605.1 mb 0.00 in0.0 mm 0.00 in0.0 mm 0.00 in0.0 mm
03:16 AM -5537.2°C -5537.2°C - Calm Calm -- -338605.1 mb 0.00 in0.0 mm 0.00 in0.0 mm 0.00 in0.0 mm
03:15 AM -5537.2°C -5537.2°C - Calm Calm -- -338605.1 mb 0.00 in0.0 mm 0.00 in0.0 mm 0.00 in0.0 mm
03:14 AM -5537.2°C -5537.2°C - Calm Calm -- -338605.1 mb 0.00 in0.0 mm 0.00 in0.0 mm 0.00 in0.0 mm
03:13 AM -5537.2°C -5537.2°C - Calm Calm -- -338605.1 mb 0.00 in0.0 mm 0.00 in0.0 mm 0.00 in0.0 mm
03:12 AM -5537.2°C -5537.2°C - Calm Calm -- -338605.1 mb 0.00 in0.0 mm 0.00 in0.0 mm 0.00 in0.0 mm
03:11 AM -5537.2°C -5537.2°C - Calm Calm -- -338605.1 mb 0.00 in0.0 mm 0.00 in0.0 mm 0.00 in0.0 mm
03:10 AM -5537.2°C -5537.2°C - Calm Calm -- -338605.1 mb 0.00 in0.0 mm 0.00 in0.0 mm 0.00 in0.0 mm
03:09 AM -5537.2°C -5537.2°C - Calm Calm -- -338605.1 mb 0.00 in0.0 mm 0.00 in0.0 mm 0.00 in0.0 mm
03:08 AM -5537.2°C -5537.2°C - Calm Calm -- -338605.1 mb 0.00 in0.0 mm 0.00 in0.0 mm 0.00 in0.0 mm
03:07 AM -5537.2°C -5537.2°C - Calm Calm -- -338605.1 mb 0.00 in0.0 mm 0.00 in0.0 mm 0.00 in0.0 mm
03:06 AM -5537.2°C -5537.2°C - Calm Calm -- -338605.1 mb 0.00 in0.0 mm 0.00 in0.0 mm 0.00 in0.0 mm
03:05 AM -5537.2°C -5537.2°C - Calm Calm -- -338605.1 mb 0.00 in0.0 mm 0.00 in0.0 mm 0.00 in0.0 mm
03:04 AM -5537.2°C -5537.2°C - Calm Calm -- -338605.1 mb 0.00 in0.0 mm 0.00 in0.0 mm 0.00 in0.0 mm
03:03 AM -5537.2°C -5537.2°C - Calm Calm -- -338605.1 mb 0.00 in0.0 mm 0.00 in0.0 mm 0.00 in0.0 mm
03:02 AM -5537.2°C -5537.2°C - Calm Calm -- -338605.1 mb 0.00 in0.0 mm 0.00 in0.0 mm 0.00 in0.0 mm
03:01 AM -5537.2°C -5537.2°C - Calm Calm -- -338605.1 mb 0.00 in0.0 mm 0.00 in0.0 mm 0.00 in0.0 mm
03:00 AM -5537.2°C -5537.2°C - Calm Calm -- -338605.1 mb 0.00 in0.0 mm 0.00 in0.0 mm 0.00 in0.0 mm
02:59 AM -5537.2°C -5537.2°C - Calm Calm -- -338605.1 mb 0.00 in0.0 mm 0.00 in0.0 mm 0.00 in0.0 mm
02:58 AM -5537.2°C -5537.2°C - Calm Calm -- -338605.1 mb 0.00 in0.0 mm 0.00 in0.0 mm 0.00 in0.0 mm
02:57 AM -5537.2°C -5537.2°C - Calm Calm -- -338605.1 mb 0.00 in0.0 mm 0.00 in0.0 mm 0.00 in0.0 mm
02:56 AM -5537.2°C -5537.2°C - Calm Calm -- -338605.1 mb 0.00 in0.0 mm 0.00 in0.0 mm 0.00 in0.0 mm
02:55 AM -5537.2°C -5537.2°C - Calm Calm -- -338605.1 mb 0.00 in0.0 mm 0.00 in0.0 mm 0.00 in0.0 mm
02:54 AM -5537.2°C -5537.2°C - Calm Calm -- -338605.1 mb 0.00 in0.0 mm 0.00 in0.0 mm 0.00 in0.0 mm
02:53 AM -5537.2°C -5537.2°C - Calm Calm -- -338605.1 mb 0.00 in0.0 mm 0.00 in0.0 mm 0.00 in0.0 mm
02:52 AM -5537.2°C -5537.2°C - Calm Calm -- -338605.1 mb 0.00 in0.0 mm 0.00 in0.0 mm 0.00 in0.0 mm
02:51 AM -5537.2°C -5537.2°C - Calm Calm -- -338605.1 mb 0.00 in0.0 mm 0.00 in0.0 mm 0.00 in0.0 mm
02:50 AM -5537.2°C -5537.2°C - Calm Calm -- -338605.1 mb 0.00 in0.0 mm 0.00 in0.0 mm 0.00 in0.0 mm
02:49 AM -5537.2°C -5537.2°C - Calm Calm -- -338605.1 mb 0.00 in0.0 mm 0.00 in0.0 mm 0.00 in0.0 mm
02:48 AM -5537.2°C -5537.2°C - Calm Calm -- -338605.1 mb 0.00 in0.0 mm 0.00 in0.0 mm 0.00 in0.0 mm
02:47 AM -5537.2°C -5537.2°C - Calm Calm -- -338605.1 mb 0.00 in0.0 mm 0.00 in0.0 mm 0.00 in0.0 mm
02:46 AM -5537.2°C -5537.2°C - Calm Calm -- -338605.1 mb 0.00 in0.0 mm 0.00 in0.0 mm 0.00 in0.0 mm
02:45 AM -5537.2°C -5537.2°C - Calm Calm -- -338605.1 mb 0.00 in0.0 mm 0.00 in0.0 mm 0.00 in0.0 mm
02:44 AM -5537.2°C -5537.2°C - Calm Calm -- -338605.1 mb 0.00 in0.0 mm 0.00 in0.0 mm 0.00 in0.0 mm
02:43 AM -5537.2°C -5537.2°C - Calm Calm -- -338605.1 mb 0.00 in0.0 mm 0.00 in0.0 mm 0.00 in0.0 mm
02:42 AM -5537.2°C -5537.2°C - Calm Calm -- -338605.1 mb 0.00 in0.0 mm 0.00 in0.0 mm 0.00 in0.0 mm
02:41 AM -5537.2°C -5537.2°C - Calm Calm -- -338605.1 mb 0.00 in0.0 mm 0.00 in0.0 mm 0.00 in0.0 mm
02:40 AM -5537.2°C -5537.2°C - Calm Calm -- -338605.1 mb 0.00 in0.0 mm 0.00 in0.0 mm 0.00 in0.0 mm
02:39 AM -5537.2°C -5537.2°C - Calm Calm -- -338605.1 mb 0.00 in0.0 mm 0.00 in0.0 mm 0.00 in0.0 mm
02:38 AM -5537.2°C -5537.2°C - Calm Calm -- -338605.1 mb 0.00 in0.0 mm 0.00 in0.0 mm 0.00 in0.0 mm
02:37 AM -5537.2°C -5537.2°C - Calm Calm -- -338605.1 mb 0.00 in0.0 mm 0.00 in0.0 mm 0.00 in0.0 mm
02:36 AM -5537.2°C -5537.2°C - Calm Calm -- -338605.1 mb 0.00 in0.0 mm 0.00 in0.0 mm 0.00 in0.0 mm
02:35 AM -5537.2°C -5537.2°C - Calm Calm -- -338605.1 mb 0.00 in0.0 mm 0.00 in0.0 mm 0.00 in0.0 mm
02:34 AM -5537.2°C -5537.2°C - Calm Calm -- -338605.1 mb 0.00 in0.0 mm 0.00 in0.0 mm 0.00 in0.0 mm
02:33 AM -5537.2°C -5537.2°C - Calm Calm -- -338605.1 mb 0.00 in0.0 mm 0.00 in0.0 mm 0.00 in0.0 mm
02:32 AM -5537.2°C -5537.2°C - Calm Calm -- -338605.1 mb 0.00 in0.0 mm 0.00 in0.0 mm 0.00 in0.0 mm
02:31 AM -5537.2°C -5537.2°C - Calm Calm -- -338605.1 mb 0.00 in0.0 mm 0.00 in0.0 mm 0.00 in0.0 mm
02:30 AM -5537.2°C -5537.2°C - Calm Calm -- -338605.1 mb 0.00 in0.0 mm 0.00 in0.0 mm 0.00 in0.0 mm
02:29 AM -5537.2°C -5537.2°C - Calm Calm -- -338605.1 mb 0.00 in0.0 mm 0.00 in0.0 mm 0.00 in0.0 mm
02:28 AM -5537.2°C -5537.2°C - Calm Calm -- -338605.1 mb 0.00 in0.0 mm 0.00 in0.0 mm 0.00 in0.0 mm
02:27 AM -5537.2°C -5537.2°C - Calm Calm -- -338605.1 mb 0.00 in0.0 mm 0.00 in0.0 mm 0.00 in0.0 mm
02:26 AM -5537.2°C -5537.2°C - Calm Calm -- -338605.1 mb 0.00 in0.0 mm 0.00 in0.0 mm 0.00 in0.0 mm
02:25 AM -5537.2°C -5537.2°C - Calm Calm -- -338605.1 mb 0.00 in0.0 mm 0.00 in0.0 mm 0.00 in0.0 mm
02:24 AM -5537.2°C -5537.2°C - Calm Calm -- -338605.1 mb 0.00 in0.0 mm 0.00 in0.0 mm 0.00 in0.0 mm
02:23 AM -5537.2°C -5537.2°C - Calm Calm -- -338605.1 mb 0.00 in0.0 mm 0.00 in0.0 mm 0.00 in0.0 mm
02:22 AM -5537.2°C -5537.2°C - Calm Calm -- -338605.1 mb 0.00 in0.0 mm 0.00 in0.0 mm 0.00 in0.0 mm
02:21 AM -5537.2°C -5537.2°C - Calm Calm -- -338605.1 mb 0.00 in0.0 mm 0.00 in0.0 mm 0.00 in0.0 mm
02:20 AM -5537.2°C -5537.2°C - Calm Calm -- -338605.1 mb 0.00 in0.0 mm 0.00 in0.0 mm 0.00 in0.0 mm
02:19 AM -5537.2°C -5537.2°C - Calm Calm -- -338605.1 mb 0.00 in0.0 mm 0.00 in0.0 mm 0.00 in0.0 mm
02:18 AM -5537.2°C -5537.2°C - Calm Calm -- -338605.1 mb 0.00 in0.0 mm 0.00 in0.0 mm 0.00 in0.0 mm
02:17 AM -5537.2°C -5537.2°C - Calm Calm -- -338605.1 mb 0.00 in0.0 mm 0.00 in0.0 mm 0.00 in0.0 mm
02:16 AM -5537.2°C -5537.2°C - Calm Calm -- -338605.1 mb 0.00 in0.0 mm 0.00 in0.0 mm 0.00 in0.0 mm
02:15 AM -5537.2°C -5537.2°C - Calm Calm -- -338605.1 mb 0.00 in0.0 mm 0.00 in0.0 mm 0.00 in0.0 mm
02:14 AM -5537.2°C -5537.2°C - Calm Calm 0.9 mph1.4 kmh -338605.1 mb 0.00 in0.0 mm 0.00 in0.0 mm 0.00 in0.0 mm
02:13 AM -5537.2°C -5537.2°C - Calm Calm -- -338605.1 mb 0.00 in0.0 mm 0.00 in0.0 mm 0.00 in0.0 mm
02:12 AM -5537.2°C -5537.2°C - Calm Calm -- -338605.1 mb 0.00 in0.0 mm 0.00 in0.0 mm 0.00 in0.0 mm
02:11 AM -5537.2°C -5537.2°C - Calm Calm -- -338605.1 mb 0.00 in0.0 mm 0.00 in0.0 mm 0.00 in0.0 mm
02:10 AM -5537.2°C -5537.2°C - Calm Calm -- -338605.1 mb 0.00 in0.0 mm 0.00 in0.0 mm 0.00 in0.0 mm
02:09 AM -5537.2°C -5537.2°C - Calm Calm -- -338605.1 mb 0.00 in0.0 mm 0.00 in0.0 mm 0.00 in0.0 mm
02:08 AM -5537.2°C -5537.2°C - Calm Calm -- -338605.1 mb 0.00 in0.0 mm 0.00 in0.0 mm 0.00 in0.0 mm
02:07 AM -5537.2°C -5537.2°C - Calm Calm -- -338605.1 mb 0.00 in0.0 mm 0.00 in0.0 mm 0.00 in0.0 mm
02:06 AM -5537.2°C -5537.2°C - Calm Calm -- -338605.1 mb 0.00 in0.0 mm 0.00 in0.0 mm 0.00 in0.0 mm
02:05 AM -5537.2°C -5537.2°C - Calm Calm -- -338605.1 mb 0.00 in0.0 mm 0.00 in0.0 mm 0.00 in0.0 mm
02:04 AM -5537.2°C -5537.2°C - Calm Calm -- -338605.1 mb 0.00 in0.0 mm 0.00 in0.0 mm 0.00 in0.0 mm
02:03 AM -5537.2°C -5537.2°C - Calm Calm -- -338605.1 mb 0.00 in0.0 mm 0.00 in0.0 mm 0.00 in0.0 mm
02:02 AM -5537.2°C -5537.2°C - Calm Calm -- -338605.1 mb 0.00 in0.0 mm 0.00 in0.0 mm 0.00 in0.0 mm
02:01 AM -5537.2°C -5537.2°C - Calm Calm -- -338605.1 mb 0.00 in0.0 mm 0.00 in0.0 mm 0.00 in0.0 mm
02:00 AM -5537.2°C -5537.2°C - Calm Calm -- -338605.1 mb 0.00 in0.0 mm 0.00 in0.0 mm 0.00 in0.0 mm
01:59 AM -5537.2°C -5537.2°C - Calm Calm -- -338605.1 mb 0.00 in0.0 mm 0.00 in0.0 mm 0.00 in0.0 mm
01:58 AM -5537.2°C -5537.2°C - Calm Calm -- -338605.1 mb 0.00 in0.0 mm 0.00 in0.0 mm 0.00 in0.0 mm
01:57 AM -5537.2°C -5537.2°C - Calm Calm -- -338605.1 mb 0.00 in0.0 mm 0.00 in0.0 mm 0.00 in0.0 mm
01:56 AM -5537.2°C -5537.2°C - Calm Calm -- -338605.1 mb 0.00 in0.0 mm 0.00 in0.0 mm 0.00 in0.0 mm
01:55 AM -5537.2°C -5537.2°C - Calm Calm -- -338605.1 mb 0.00 in0.0 mm 0.00 in0.0 mm 0.00 in0.0 mm
01:54 AM -5537.2°C -5537.2°C - Calm Calm -- -338605.1 mb 0.00 in0.0 mm 0.00 in0.0 mm 0.00 in0.0 mm
01:53 AM -5537.2°C -5537.2°C - Calm Calm -- -338605.1 mb 0.00 in0.0 mm 0.00 in0.0 mm 0.00 in0.0 mm
01:52 AM -5537.2°C -5537.2°C - Calm Calm -- -338605.1 mb 0.00 in0.0 mm 0.00 in0.0 mm 0.00 in0.0 mm
01:51 AM -5537.2°C -5537.2°C - Calm Calm -- -338605.1 mb 0.00 in0.0 mm 0.00 in0.0 mm 0.00 in0.0 mm
01:50 AM -5537.2°C -5537.2°C - Calm Calm -- -338605.1 mb 0.00 in0.0 mm 0.00 in0.0 mm 0.00 in0.0 mm
01:49 AM -5537.2°C -5537.2°C - Calm Calm -- -338605.1 mb 0.00 in0.0 mm 0.00 in0.0 mm 0.00 in0.0 mm
01:48 AM -5537.2°C -5537.2°C - Calm Calm -- -338605.1 mb 0.00 in0.0 mm 0.00 in0.0 mm 0.00 in0.0 mm
01:47 AM -5537.2°C -5537.2°C - Calm Calm -- -338605.1 mb 0.00 in0.0 mm 0.00 in0.0 mm 0.00 in0.0 mm
01:46 AM -5537.2°C -5537.2°C - Calm Calm -- -338605.1 mb 0.00 in0.0 mm 0.00 in0.0 mm 0.00 in0.0 mm
01:45 AM -5537.2°C -5537.2°C - Calm Calm -- -338605.1 mb 0.00 in0.0 mm 0.00 in0.0 mm 0.00 in0.0 mm
01:44 AM -5537.2°C -5537.2°C - Calm Calm -- -338605.1 mb 0.00 in0.0 mm 0.00 in0.0 mm 0.00 in0.0 mm
01:43 AM -5537.2°C -5537.2°C - Calm Calm -- -338605.1 mb 0.00 in0.0 mm 0.00 in0.0 mm 0.00 in0.0 mm
01:42 AM -5537.2°C -5537.2°C - Calm Calm -- -338605.1 mb 0.00 in0.0 mm 0.00 in0.0 mm 0.00 in0.0 mm
01:41 AM -5537.2°C -5537.2°C - Calm Calm -- -338605.1 mb 0.00 in0.0 mm 0.00 in0.0 mm 0.00 in0.0 mm
01:40 AM -5537.2°C -5537.2°C - Calm Calm -- -338605.1 mb 0.00 in0.0 mm 0.00 in0.0 mm 0.00 in0.0 mm
01:39 AM -5537.2°C -5537.2°C - Calm Calm -- -338605.1 mb 0.00 in0.0 mm 0.00 in0.0 mm 0.00 in0.0 mm
01:38 AM -5537.2°C -5537.2°C - Calm Calm -- -338605.1 mb 0.00 in0.0 mm 0.00 in0.0 mm 0.00 in0.0 mm
01:37 AM -5537.2°C -5537.2°C - Calm Calm -- -338605.1 mb 0.00 in0.0 mm 0.00 in0.0 mm 0.00 in0.0 mm
01:36 AM -5537.2°C -5537.2°C - Calm Calm -- -338605.1 mb 0.00 in0.0 mm 0.00 in0.0 mm 0.00 in0.0 mm
01:35 AM -5537.2°C -5537.2°C - Calm Calm -- -338605.1 mb 0.00 in0.0 mm 0.00 in0.0 mm 0.00 in0.0 mm
01:34 AM -5537.2°C -5537.2°C - Calm Calm -- -338605.1 mb 0.00 in0.0 mm 0.00 in0.0 mm 0.00 in0.0 mm
01:33 AM -5537.2°C -5537.2°C - Calm Calm -- -338605.1 mb 0.00 in0.0 mm 0.00 in0.0 mm 0.00 in0.0 mm
01:32 AM -5537.2°C -5537.2°C - Calm Calm -- -338605.1 mb 0.00 in0.0 mm 0.00 in0.0 mm 0.00 in0.0 mm
01:31 AM -5537.2°C -5537.2°C - Calm Calm -- -338605.1 mb 0.00 in0.0 mm 0.00 in0.0 mm 0.00 in0.0 mm
01:30 AM -5537.2°C -5537.2°C - Calm Calm -- -338605.1 mb 0.00 in0.0 mm 0.00 in0.0 mm 0.00 in0.0 mm
01:29 AM -5537.2°C -5537.2°C - Calm Calm -- -338605.1 mb 0.00 in0.0 mm 0.00 in0.0 mm 0.00 in0.0 mm
01:28 AM -5537.2°C -5537.2°C - Calm Calm -- -338605.1 mb 0.00 in0.0 mm 0.00 in0.0 mm 0.00 in0.0 mm
01:27 AM -5537.2°C -5537.2°C - Calm Calm -- -338605.1 mb 0.00 in0.0 mm 0.00 in0.0 mm 0.00 in0.0 mm
01:26 AM -5537.2°C -5537.2°C - Calm Calm -- -338605.1 mb 0.00 in0.0 mm 0.00 in0.0 mm 0.00 in0.0 mm
01:25 AM -5537.2°C -5537.2°C - Calm Calm -- -338605.1 mb 0.00 in0.0 mm 0.00 in0.0 mm 0.00 in0.0 mm
01:24 AM -5537.2°C -5537.2°C - Calm Calm -- -338605.1 mb 0.00 in0.0 mm 0.00 in0.0 mm 0.00 in0.0 mm
01:23 AM -5537.2°C -5537.2°C - Calm Calm -- -338605.1 mb 0.00 in0.0 mm 0.00 in0.0 mm 0.00 in0.0 mm
01:22 AM -5537.2°C -5537.2°C - Calm Calm -- -338605.1 mb 0.00 in0.0 mm 0.00 in0.0 mm 0.00 in0.0 mm
01:21 AM -5537.2°C -5537.2°C - Calm Calm -- -338605.1 mb 0.00 in0.0 mm 0.00 in0.0 mm 0.00 in0.0 mm
01:20 AM -5537.2°C -5537.2°C - Calm Calm -- -338605.1 mb 0.00 in0.0 mm 0.00 in0.0 mm 0.00 in0.0 mm
01:19 AM -5537.2°C -5537.2°C - Calm Calm -- -338605.1 mb 0.00 in0.0 mm 0.00 in0.0 mm 0.00 in0.0 mm
01:18 AM -5537.2°C -5537.2°C - Calm Calm -- -338605.1 mb 0.00 in0.0 mm 0.00 in0.0 mm 0.00 in0.0 mm
01:17 AM -5537.2°C -5537.2°C - Calm Calm -- -338605.1 mb 0.00 in0.0 mm 0.00 in0.0 mm 0.00 in0.0 mm
01:16 AM -5537.2°C -5537.2°C - Calm Calm -- -338605.1 mb 0.00 in0.0 mm 0.00 in0.0 mm 0.00 in0.0 mm
01:15 AM -5537.2°C -5537.2°C - Calm Calm -- -338605.1 mb 0.00 in0.0 mm 0.00 in0.0 mm 0.00 in0.0 mm
01:14 AM -5537.2°C -5537.2°C - Calm Calm -- -338605.1 mb 0.00 in0.0 mm 0.00 in0.0 mm 0.00 in0.0 mm
01:13 AM -5537.2°C -5537.2°C - Calm Calm -- -338605.1 mb 0.00 in0.0 mm 0.00 in0.0 mm 0.00 in0.0 mm
01:12 AM -5537.2°C -5537.2°C - Calm Calm -- -338605.1 mb 0.00 in0.0 mm 0.00 in0.0 mm 0.00 in0.0 mm
01:11 AM -5537.2°C -5537.2°C - Calm Calm -- -338605.1 mb 0.00 in0.0 mm 0.00 in0.0 mm 0.00 in0.0 mm
01:10 AM -5537.2°C -5537.2°C - Calm Calm -- -338605.1 mb 0.00 in0.0 mm 0.00 in0.0 mm 0.00 in0.0 mm
01:09 AM -5537.2°C -5537.2°C - Calm Calm -- -338605.1 mb 0.00 in0.0 mm 0.00 in0.0 mm 0.00 in0.0 mm
01:08 AM -5537.2°C -5537.2°C - Calm Calm -- -338605.1 mb 0.00 in0.0 mm 0.00 in0.0 mm 0.00 in0.0 mm
01:07 AM -5537.2°C -5537.2°C - Calm Calm -- -338605.1 mb 0.00 in0.0 mm 0.00 in0.0 mm 0.00 in0.0 mm
01:06 AM -5537.2°C -5537.2°C - Calm Calm -- -338605.1 mb 0.00 in0.0 mm 0.00 in0.0 mm 0.00 in0.0 mm
01:05 AM -5537.2°C -5537.2°C - Calm Calm -- -338605.1 mb 0.00 in0.0 mm 0.00 in0.0 mm 0.00 in0.0 mm
01:04 AM -5537.2°C -5537.2°C - Calm Calm -- -338605.1 mb 0.00 in0.0 mm 0.00 in0.0 mm 0.00 in0.0 mm
01:03 AM -5537.2°C -5537.2°C - Calm Calm -- -338605.1 mb 0.00 in0.0 mm 0.00 in0.0 mm 0.00 in0.0 mm
01:02 AM -5537.2°C -5537.2°C - Calm Calm -- -338605.1 mb 0.00 in0.0 mm 0.00 in0.0 mm 0.00 in0.0 mm
01:01 AM -5537.2°C -5537.2°C - Calm Calm -- -338605.1 mb 0.00 in0.0 mm 0.00 in0.0 mm 0.00 in0.0 mm
01:00 AM -5537.2°C -5537.2°C - Calm Calm -- -338605.1 mb 0.00 in0.0 mm 0.00 in0.0 mm 0.00 in0.0 mm
12:59 AM -5537.2°C -5537.2°C - Calm Calm -- -338605.1 mb 0.00 in0.0 mm 0.00 in0.0 mm 0.00 in0.0 mm
12:58 AM -5537.2°C -5537.2°C - Calm Calm -- -338605.1 mb 0.00 in0.0 mm 0.00 in0.0 mm 0.00 in0.0 mm
12:57 AM -5537.2°C -5537.2°C - Calm Calm -- -338605.1 mb 0.00 in0.0 mm 0.00 in0.0 mm 0.00 in0.0 mm
12:56 AM -5537.2°C -5537.2°C - Calm Calm -- -338605.1 mb 0.00 in0.0 mm 0.00 in0.0 mm 0.00 in0.0 mm
12:55 AM -5537.2°C -5537.2°C - Calm Calm -- -338605.1 mb 0.00 in0.0 mm 0.00 in0.0 mm 0.00 in0.0 mm
12:54 AM -5537.2°C -5537.2°C - Calm Calm -- -338605.1 mb 0.00 in0.0 mm 0.00 in0.0 mm 0.00 in0.0 mm
12:53 AM -5537.2°C -5537.2°C - Calm Calm -- -338605.1 mb 0.00 in0.0 mm 0.00 in0.0 mm 0.00 in0.0 mm
12:52 AM -5537.2°C -5537.2°C - Calm Calm -- -338605.1 mb 0.00 in0.0 mm 0.00 in0.0 mm 0.00 in0.0 mm
12:51 AM -5537.2°C -5537.2°C - Calm Calm -- -338605.1 mb 0.00 in0.0 mm 0.00 in0.0 mm 0.00 in0.0 mm
12:50 AM -5537.2°C -5537.2°C - Calm Calm -- -338605.1 mb 0.00 in0.0 mm 0.00 in0.0 mm 0.00 in0.0 mm
12:49 AM -5537.2°C -5537.2°C - Calm Calm -- -338605.1 mb 0.00 in0.0 mm 0.00 in0.0 mm 0.00 in0.0 mm
12:48 AM -5537.2°C -5537.2°C - Calm Calm -- -338605.1 mb 0.00 in0.0 mm 0.00 in0.0 mm 0.00 in0.0 mm
12:47 AM -5537.2°C -5537.2°C - Calm Calm -- -338605.1 mb 0.00 in0.0 mm 0.00 in0.0 mm 0.00 in0.0 mm
12:46 AM -5537.2°C -5537.2°C - Calm Calm -- -338605.1 mb 0.00 in0.0 mm 0.00 in0.0 mm 0.00 in0.0 mm
12:45 AM -5537.2°C -5537.2°C - Calm Calm -- -338605.1 mb 0.00 in0.0 mm 0.00 in0.0 mm 0.00 in0.0 mm
12:44 AM -5537.2°C -5537.2°C - Calm Calm -- -338605.1 mb 0.00 in0.0 mm 0.00 in0.0 mm 0.00 in0.0 mm
12:43 AM -5537.2°C -5537.2°C - Calm Calm -- -338605.1 mb 0.00 in0.0 mm 0.00 in0.0 mm 0.00 in0.0 mm
12:42 AM -5537.2°C -5537.2°C - Calm Calm -- -338605.1 mb 0.00 in0.0 mm 0.00 in0.0 mm 0.00 in0.0 mm
12:41 AM -5537.2°C -5537.2°C - Calm Calm -- -338605.1 mb 0.00 in0.0 mm 0.00 in0.0 mm 0.00 in0.0 mm
12:40 AM -5537.2°C -5537.2°C - Calm Calm -- -338605.1 mb 0.00 in0.0 mm 0.00 in0.0 mm 0.00 in0.0 mm
12:39 AM -5537.2°C -5537.2°C - Calm Calm -- -338605.1 mb 0.00 in0.0 mm 0.00 in0.0 mm 0.00 in0.0 mm
12:38 AM -5537.2°C -5537.2°C - Calm Calm -- -338605.1 mb 0.00 in0.0 mm 0.00 in0.0 mm 0.00 in0.0 mm
12:37 AM -5537.2°C -5537.2°C - Calm Calm -- -338605.1 mb 0.00 in0.0 mm 0.00 in0.0 mm 0.00 in0.0 mm
12:36 AM -5537.2°C -5537.2°C - Calm Calm -- -338605.1 mb 0.00 in0.0 mm 0.00 in0.0 mm 0.00 in0.0 mm
12:35 AM -5537.2°C -5537.2°C - Calm Calm -- -338605.1 mb 0.00 in0.0 mm 0.00 in0.0 mm 0.00 in0.0 mm
12:34 AM -5537.2°C -5537.2°C - Calm Calm -- -338605.1 mb 0.00 in0.0 mm 0.00 in0.0 mm 0.00 in0.0 mm
12:33 AM -5537.2°C -5537.2°C - Calm Calm -- -338605.1 mb 0.00 in0.0 mm 0.00 in0.0 mm 0.00 in0.0 mm
12:32 AM -5537.2°C -5537.2°C - Calm Calm -- -338605.1 mb 0.00 in0.0 mm 0.00 in0.0 mm 0.00 in0.0 mm
12:31 AM -5537.2°C -5537.2°C - Calm Calm -- -338605.1 mb 0.00 in0.0 mm 0.00 in0.0 mm 0.00 in0.0 mm
12:30 AM -5537.2°C -5537.2°C - Calm Calm -- -338605.1 mb 0.00 in0.0 mm 0.00 in0.0 mm 0.00 in0.0 mm
12:29 AM -5537.2°C -5537.2°C - Calm Calm -- -338605.1 mb 0.00 in0.0 mm 0.00 in0.0 mm 0.00 in0.0 mm
12:28 AM -5537.2°C -5537.2°C - Calm Calm -- -338605.1 mb 0.00 in0.0 mm 0.00 in0.0 mm 0.00 in0.0 mm
12:27 AM -5537.2°C -5537.2°C - Calm Calm -- -338605.1 mb 0.00 in0.0 mm 0.00 in0.0 mm 0.00 in0.0 mm
12:26 AM -5537.2°C -5537.2°C - Calm Calm -- -338605.1 mb 0.00 in0.0 mm 0.00 in0.0 mm 0.00 in0.0 mm
12:25 AM -5537.2°C -5537.2°C - Calm Calm -- -338605.1 mb 0.00 in0.0 mm 0.00 in0.0 mm 0.00 in0.0 mm
12:24 AM -5537.2°C -5537.2°C - Calm Calm -- -338605.1 mb 0.00 in0.0 mm 0.00 in0.0 mm 0.00 in0.0 mm
12:23 AM -5537.2°C -5537.2°C - Calm Calm -- -338605.1 mb 0.00 in0.0 mm 0.00 in0.0 mm 0.00 in0.0 mm
12:22 AM -5537.2°C -5537.2°C - Calm Calm -- -338605.1 mb 0.00 in0.0 mm 0.00 in0.0 mm 0.00 in0.0 mm
12:21 AM -5537.2°C -5537.2°C - Calm Calm -- -338605.1 mb 0.00 in0.0 mm 0.00 in0.0 mm 0.00 in0.0 mm
12:20 AM -5537.2°C -5537.2°C - Calm Calm -- -338605.1 mb 0.00 in0.0 mm 0.00 in0.0 mm 0.00 in0.0 mm
12:19 AM -5537.2°C -5537.2°C - Calm Calm -- -338605.1 mb 0.00 in0.0 mm 0.00 in0.0 mm 0.00 in0.0 mm
12:18 AM -5537.2°C -5537.2°C - Calm Calm -- -338605.1 mb 0.00 in0.0 mm 0.00 in0.0 mm 0.00 in0.0 mm
12:17 AM -5537.2°C -5537.2°C - Calm Calm -- -338605.1 mb 0.00 in0.0 mm 0.00 in0.0 mm 0.00 in0.0 mm
12:16 AM -5537.2°C -5537.2°C - Calm Calm -- -338605.1 mb 0.00 in0.0 mm 0.00 in0.0 mm 0.00 in0.0 mm
12:15 AM -5537.2°C -5537.2°C - Calm Calm -- -338605.1 mb 0.00 in0.0 mm 0.00 in0.0 mm 0.00 in0.0 mm
12:14 AM -5537.2°C -5537.2°C - Calm Calm -- -338605.1 mb 0.00 in0.0 mm 0.00 in0.0 mm 0.00 in0.0 mm
12:13 AM -5537.2°C -5537.2°C - Calm Calm -- -338605.1 mb 0.00 in0.0 mm 0.00 in0.0 mm 0.00 in0.0 mm
12:12 AM -5537.2°C -5537.2°C - Calm Calm -- -338605.1 mb 0.00 in0.0 mm 0.00 in0.0 mm 0.00 in0.0 mm
12:11 AM -5537.2°C -5537.2°C - Calm Calm -- -338605.1 mb 0.00 in0.0 mm 0.00 in0.0 mm 0.00 in0.0 mm
12:10 AM -5537.2°C -5537.2°C - Calm Calm -- -338605.1 mb 0.00 in0.0 mm 0.00 in0.0 mm 0.00 in0.0 mm
12:09 AM -5537.2°C -5537.2°C - Calm Calm -- -338605.1 mb 0.00 in0.0 mm 0.00 in0.0 mm 0.00 in0.0 mm
12:08 AM -5537.2°C -5537.2°C - Calm Calm -- -338605.1 mb 0.00 in0.0 mm 0.00 in0.0 mm 0.00 in0.0 mm
12:07 AM -5537.2°C -5537.2°C - Calm Calm -- -338605.1 mb 0.00 in0.0 mm 0.00 in0.0 mm 0.00 in0.0 mm
12:06 AM -5537.2°C -5537.2°C - Calm Calm -- -338605.1 mb 0.00 in0.0 mm 0.00 in0.0 mm 0.00 in0.0 mm
12:05 AM -5537.2°C -5537.2°C - Calm Calm -- -338605.1 mb 0.00 in0.0 mm 0.00 in0.0 mm 0.00 in0.0 mm
12:04 AM -5537.2°C -5537.2°C - Calm Calm -- -338605.1 mb 0.00 in0.0 mm 0.00 in0.0 mm 0.00 in0.0 mm
12:03 AM -5537.2°C -5537.2°C - Calm Calm -- -338605.1 mb 0.00 in0.0 mm 0.00 in0.0 mm 0.00 in0.0 mm
12:02 AM -5537.2°C -5537.2°C - Calm Calm -- -338605.1 mb 0.00 in0.0 mm 0.00 in0.0 mm 0.00 in0.0 mm
12:01 AM -5537.2°C -5537.2°C - Calm Calm -- -338605.1 mb 0.00 in0.0 mm 0.00 in0.0 mm 0.00 in0.0 mm
12:00 AM -5537.2°C -5537.2°C - Calm Calm -- -338605.1 mb 0.00 in0.0 mm 0.00 in0.0 mm 0.00 in0.0 mm